<?xml version="1.0" encoding="UTF-8" standalone="no" ?>
<gpx xmlns="http://www.topografix.com/GPX/1/1" creator="CompeGPS" version="1.1" xmlns:xsi="http://www.w3.org/2001/XMLSchema-instance" xsi:schemaLocation="http://www.topografix.com/GPX/1/1 http://www.topografix.com/GPX/1/1/gpx.xsd http://www.garmin.com/xmlschemas/GpxExtensions/v3 http://www.garmin.com/xmlschemas/GpxExtensionsv3.xsd http://www.garmin.com/xmlschemas/TrackPointExtension/v1 http://www.garmin.com/xmlschemas/TrackPointExtensionv1.xsd" xmlns:gpxtpx="http://www.garmin.com/xmlschemas/TrackPointExtension/v1">
  <metadata>
    <link href="http://www.compegps.com">
      <text>CompeGPS TEAM, SL</text>
    </link>
    <time>2020-05-20T20:19:39Z</time>
    <bounds maxlat="42.832651" maxlon="0.670490" minlat="42.809084" minlon="0.616344"/>
  </metadata>
    <wpt lat="42.812381" lon="0.628012">
    <ele>1128.8</ele>
    <time>2020-05-20T20:19:50Z</time>
    <name>Granges de Labach</name>
    <desc></desc>
    <sym>Waypoint</sym>
  </wpt>
  <wpt lat="42.809355" lon="0.651969">
    <ele>1390.1</ele>
    <time>2020-05-20T20:20:22Z</time>
    <name>Cabane de Cueou</name>
    <desc></desc>
    <sym>Waypoint</sym>
  </wpt>
  <wpt lat="42.813926" lon="0.664768">
    <ele>1949.2</ele>
    <time>2020-05-20T20:20:30Z</time>
    <name>Cap de la Tora</name>
    <desc></desc>
    <sym>Waypoint</sym>
  </wpt>
  <wpt lat="42.832629" lon="0.660417">
    <ele>2029.9</ele>
    <time>2020-05-20T20:20:44Z</time>
    <name>Plan de Montmajou</name>
    <desc></desc>
    <sym>Waypoint</sym>
  </wpt>
  <wpt lat="42.831074" lon="0.653668">
    <ele>1930.7</ele>
    <time>2020-05-20T20:21:08Z</time>
    <name>Col de Peyrehitte</name>
    <desc></desc>
    <sym>Waypoint</sym>
  </wpt>
  <wpt lat="42.825448" lon="0.633536">
    <ele>1684.5</ele>
    <time>2020-05-20T20:21:16Z</time>
    <name>Cabane de Sauneres</name>
    <desc></desc>
    <sym>Waypoint</sym>
  </wpt>
  <wpt lat="42.817418" lon="0.627310">
    <ele>1367.5</ele>
    <time>2020-05-20T20:21:37Z</time>
    <name>Piste forestiere</name>
    <desc></desc>
    <sym>Waypoint</sym>
  </wpt>
<trk>
    <name>montmajou_par_sode</name>
    <userMyTwoNav></userMyTwoNav>
    <serialNumber></serialNumber>
    <trkseg>
      <trkpt lat="42.811408" lon="0.616356">
        <ele>937.3</ele>
        <time>2020-05-17T09:02:54Z</time>
      </trkpt>
      <trkpt lat="42.811404" lon="0.616485">
        <ele>942.7</ele>
        <time>2020-05-17T09:03:24Z</time>
      </trkpt>
      <trkpt lat="42.811379" lon="0.616592">
        <ele>942.7</ele>
        <time>2020-05-17T09:03:47Z</time>
      </trkpt>
      <trkpt lat="42.811338" lon="0.616706">
        <ele>942.7</ele>
        <time>2020-05-17T09:04:00Z</time>
      </trkpt>
      <trkpt lat="42.811294" lon="0.616827">
        <ele>945.1</ele>
        <time>2020-05-17T09:04:16Z</time>
      </trkpt>
      <trkpt lat="42.811266" lon="0.616979">
        <ele>945.1</ele>
        <time>2020-05-17T09:04:25Z</time>
      </trkpt>
      <trkpt lat="42.811216" lon="0.617107">
        <ele>945.9</ele>
        <time>2020-05-17T09:04:35Z</time>
      </trkpt>
      <trkpt lat="42.811179" lon="0.617236">
        <ele>946.8</ele>
        <time>2020-05-17T09:04:45Z</time>
      </trkpt>
      <trkpt lat="42.811137" lon="0.617366">
        <ele>947.7</ele>
        <time>2020-05-17T09:04:54Z</time>
      </trkpt>
      <trkpt lat="42.811098" lon="0.617501">
        <ele>948.5</ele>
        <time>2020-05-17T09:05:04Z</time>
      </trkpt>
      <trkpt lat="42.811059" lon="0.617621">
        <ele>950.2</ele>
        <time>2020-05-17T09:05:13Z</time>
      </trkpt>
      <trkpt lat="42.811026" lon="0.617751">
        <ele>951.1</ele>
        <time>2020-05-17T09:05:23Z</time>
      </trkpt>
      <trkpt lat="42.810999" lon="0.617883">
        <ele>951.8</ele>
        <time>2020-05-17T09:05:34Z</time>
      </trkpt>
      <trkpt lat="42.810964" lon="0.618022">
        <ele>951.7</ele>
        <time>2020-05-17T09:05:44Z</time>
      </trkpt>
      <trkpt lat="42.810925" lon="0.618157">
        <ele>951.7</ele>
        <time>2020-05-17T09:05:53Z</time>
      </trkpt>
      <trkpt lat="42.810887" lon="0.618286">
        <ele>951.6</ele>
        <time>2020-05-17T09:06:01Z</time>
      </trkpt>
      <trkpt lat="42.810854" lon="0.618434">
        <ele>952.5</ele>
        <time>2020-05-17T09:06:10Z</time>
      </trkpt>
      <trkpt lat="42.810830" lon="0.618574">
        <ele>952.5</ele>
        <time>2020-05-17T09:06:18Z</time>
      </trkpt>
      <trkpt lat="42.810805" lon="0.618706">
        <ele>952.5</ele>
        <time>2020-05-17T09:06:26Z</time>
      </trkpt>
      <trkpt lat="42.810785" lon="0.618859">
        <ele>953.2</ele>
        <time>2020-05-17T09:06:36Z</time>
      </trkpt>
      <trkpt lat="42.810754" lon="0.618975">
        <ele>953.9</ele>
        <time>2020-05-17T09:07:02Z</time>
      </trkpt>
      <trkpt lat="42.810751" lon="0.619100">
        <ele>953.9</ele>
        <time>2020-05-17T09:07:12Z</time>
      </trkpt>
      <trkpt lat="42.810757" lon="0.619228">
        <ele>954.7</ele>
        <time>2020-05-17T09:07:21Z</time>
      </trkpt>
      <trkpt lat="42.810758" lon="0.619380">
        <ele>955.6</ele>
        <time>2020-05-17T09:07:30Z</time>
      </trkpt>
      <trkpt lat="42.810761" lon="0.619518">
        <ele>957.2</ele>
        <time>2020-05-17T09:07:39Z</time>
      </trkpt>
      <trkpt lat="42.810784" lon="0.619659">
        <ele>958.1</ele>
        <time>2020-05-17T09:07:48Z</time>
      </trkpt>
      <trkpt lat="42.810817" lon="0.619773">
        <ele>958.0</ele>
        <time>2020-05-17T09:07:57Z</time>
      </trkpt>
      <trkpt lat="42.810850" lon="0.619917">
        <ele>959.6</ele>
        <time>2020-05-17T09:08:06Z</time>
      </trkpt>
      <trkpt lat="42.810899" lon="0.620063">
        <ele>961.2</ele>
        <time>2020-05-17T09:08:16Z</time>
      </trkpt>
      <trkpt lat="42.810952" lon="0.620195">
        <ele>962.0</ele>
        <time>2020-05-17T09:08:26Z</time>
      </trkpt>
      <trkpt lat="42.810975" lon="0.620315">
        <ele>963.7</ele>
        <time>2020-05-17T09:08:37Z</time>
      </trkpt>
      <trkpt lat="42.810996" lon="0.620470">
        <ele>965.4</ele>
        <time>2020-05-17T09:08:48Z</time>
      </trkpt>
      <trkpt lat="42.811003" lon="0.620619">
        <ele>967.2</ele>
        <time>2020-05-17T09:09:01Z</time>
      </trkpt>
      <trkpt lat="42.811038" lon="0.620776">
        <ele>969.8</ele>
        <time>2020-05-17T09:09:13Z</time>
      </trkpt>
      <trkpt lat="42.811072" lon="0.620916">
        <ele>971.4</ele>
        <time>2020-05-17T09:09:25Z</time>
      </trkpt>
      <trkpt lat="42.811076" lon="0.621061">
        <ele>972.1</ele>
        <time>2020-05-17T09:09:36Z</time>
      </trkpt>
      <trkpt lat="42.811034" lon="0.621205">
        <ele>973.0</ele>
        <time>2020-05-17T09:09:46Z</time>
      </trkpt>
      <trkpt lat="42.811003" lon="0.621351">
        <ele>974.7</ele>
        <time>2020-05-17T09:09:57Z</time>
      </trkpt>
      <trkpt lat="42.810966" lon="0.621512">
        <ele>975.5</ele>
        <time>2020-05-17T09:10:07Z</time>
      </trkpt>
      <trkpt lat="42.810893" lon="0.621628">
        <ele>976.9</ele>
        <time>2020-05-17T09:10:18Z</time>
      </trkpt>
      <trkpt lat="42.810815" lon="0.621726">
        <ele>977.7</ele>
        <time>2020-05-17T09:10:27Z</time>
      </trkpt>
      <trkpt lat="42.810736" lon="0.621823">
        <ele>978.4</ele>
        <time>2020-05-17T09:10:36Z</time>
      </trkpt>
      <trkpt lat="42.810662" lon="0.621917">
        <ele>979.2</ele>
        <time>2020-05-17T09:10:45Z</time>
      </trkpt>
      <trkpt lat="42.810603" lon="0.622036">
        <ele>981.0</ele>
        <time>2020-05-17T09:10:55Z</time>
      </trkpt>
      <trkpt lat="42.810548" lon="0.622188">
        <ele>982.5</ele>
        <time>2020-05-17T09:11:06Z</time>
      </trkpt>
      <trkpt lat="42.810516" lon="0.622316">
        <ele>984.3</ele>
        <time>2020-05-17T09:11:16Z</time>
      </trkpt>
      <trkpt lat="42.810473" lon="0.622445">
        <ele>985.3</ele>
        <time>2020-05-17T09:11:25Z</time>
      </trkpt>
      <trkpt lat="42.810446" lon="0.622576">
        <ele>986.3</ele>
        <time>2020-05-17T09:11:33Z</time>
      </trkpt>
      <trkpt lat="42.810441" lon="0.622713">
        <ele>987.0</ele>
        <time>2020-05-17T09:11:41Z</time>
      </trkpt>
      <trkpt lat="42.810488" lon="0.622858">
        <ele>987.9</ele>
        <time>2020-05-17T09:11:51Z</time>
      </trkpt>
      <trkpt lat="42.810609" lon="0.622988">
        <ele>988.6</ele>
        <time>2020-05-17T09:12:04Z</time>
      </trkpt>
      <trkpt lat="42.810695" lon="0.623173">
        <ele>990.1</ele>
        <time>2020-05-17T09:12:16Z</time>
      </trkpt>
      <trkpt lat="42.810713" lon="0.623336">
        <ele>991.7</ele>
        <time>2020-05-17T09:12:27Z</time>
      </trkpt>
      <trkpt lat="42.810695" lon="0.623516">
        <ele>993.3</ele>
        <time>2020-05-17T09:12:38Z</time>
      </trkpt>
      <trkpt lat="42.810704" lon="0.623673">
        <ele>996.0</ele>
        <time>2020-05-17T09:12:49Z</time>
      </trkpt>
      <trkpt lat="42.810742" lon="0.623820">
        <ele>997.5</ele>
        <time>2020-05-17T09:12:59Z</time>
      </trkpt>
      <trkpt lat="42.810796" lon="0.623957">
        <ele>999.3</ele>
        <time>2020-05-17T09:13:10Z</time>
      </trkpt>
      <trkpt lat="42.810866" lon="0.624054">
        <ele>1001.7</ele>
        <time>2020-05-17T09:13:21Z</time>
      </trkpt>
      <trkpt lat="42.810966" lon="0.624062">
        <ele>1004.9</ele>
        <time>2020-05-17T09:13:34Z</time>
      </trkpt>
      <trkpt lat="42.811100" lon="0.624094">
        <ele>1007.4</ele>
        <time>2020-05-17T09:13:49Z</time>
      </trkpt>
      <trkpt lat="42.811215" lon="0.624156">
        <ele>1010.0</ele>
        <time>2020-05-17T09:14:01Z</time>
      </trkpt>
      <trkpt lat="42.811257" lon="0.624340">
        <ele>1011.6</ele>
        <time>2020-05-17T09:14:14Z</time>
      </trkpt>
      <trkpt lat="42.811242" lon="0.624491">
        <ele>1013.0</ele>
        <time>2020-05-17T09:14:46Z</time>
      </trkpt>
      <trkpt lat="42.811242" lon="0.624542">
        <ele>1014.4</ele>
        <time>2020-05-17T09:15:33Z</time>
      </trkpt>
      <trkpt lat="42.811206" lon="0.624619">
        <ele>1015.1</ele>
        <time>2020-05-17T09:16:56Z</time>
      </trkpt>
      <trkpt lat="42.811171" lon="0.624759">
        <ele>1016.8</ele>
        <time>2020-05-17T09:17:40Z</time>
      </trkpt>
      <trkpt lat="42.811178" lon="0.624892">
        <ele>1019.2</ele>
        <time>2020-05-17T09:17:55Z</time>
      </trkpt>
      <trkpt lat="42.811264" lon="0.624986">
        <ele>1021.8</ele>
        <time>2020-05-17T09:18:15Z</time>
      </trkpt>
      <trkpt lat="42.811391" lon="0.625092">
        <ele>1023.5</ele>
        <time>2020-05-17T09:18:32Z</time>
      </trkpt>
      <trkpt lat="42.811525" lon="0.625201">
        <ele>1026.0</ele>
        <time>2020-05-17T09:18:47Z</time>
      </trkpt>
      <trkpt lat="42.811620" lon="0.625357">
        <ele>1028.4</ele>
        <time>2020-05-17T09:18:59Z</time>
      </trkpt>
      <trkpt lat="42.811675" lon="0.625501">
        <ele>1030.0</ele>
        <time>2020-05-17T09:19:11Z</time>
      </trkpt>
      <trkpt lat="42.811742" lon="0.625656">
        <ele>1031.6</ele>
        <time>2020-05-17T09:19:25Z</time>
      </trkpt>
      <trkpt lat="42.811819" lon="0.625840">
        <ele>1033.1</ele>
        <time>2020-05-17T09:19:39Z</time>
      </trkpt>
      <trkpt lat="42.811878" lon="0.625945">
        <ele>1035.3</ele>
        <time>2020-05-17T09:19:50Z</time>
      </trkpt>
      <trkpt lat="42.811927" lon="0.626127">
        <ele>1038.7</ele>
        <time>2020-05-17T09:20:06Z</time>
      </trkpt>
      <trkpt lat="42.811965" lon="0.626295">
        <ele>1041.0</ele>
        <time>2020-05-17T09:20:20Z</time>
      </trkpt>
      <trkpt lat="42.812024" lon="0.626436">
        <ele>1043.1</ele>
        <time>2020-05-17T09:20:34Z</time>
      </trkpt>
      <trkpt lat="42.812057" lon="0.626572">
        <ele>1046.3</ele>
        <time>2020-05-17T09:20:47Z</time>
      </trkpt>
      <trkpt lat="42.812111" lon="0.626727">
        <ele>1047.8</ele>
        <time>2020-05-17T09:20:59Z</time>
      </trkpt>
      <trkpt lat="42.812158" lon="0.626860">
        <ele>1050.1</ele>
        <time>2020-05-17T09:21:12Z</time>
      </trkpt>
      <trkpt lat="42.812131" lon="0.627005">
        <ele>1052.7</ele>
        <time>2020-05-17T09:21:25Z</time>
      </trkpt>
      <trkpt lat="42.812101" lon="0.627170">
        <ele>1055.2</ele>
        <time>2020-05-17T09:21:38Z</time>
      </trkpt>
      <trkpt lat="42.812095" lon="0.627333">
        <ele>1056.9</ele>
        <time>2020-05-17T09:21:51Z</time>
      </trkpt>
      <trkpt lat="42.812086" lon="0.627501">
        <ele>1059.5</ele>
        <time>2020-05-17T09:22:04Z</time>
      </trkpt>
      <trkpt lat="42.812110" lon="0.627666">
        <ele>1062.3</ele>
        <time>2020-05-17T09:22:17Z</time>
      </trkpt>
      <trkpt lat="42.812147" lon="0.627826">
        <ele>1063.1</ele>
        <time>2020-05-17T09:22:28Z</time>
      </trkpt>
      <trkpt lat="42.812210" lon="0.627958">
        <ele>1063.8</ele>
        <time>2020-05-17T09:22:40Z</time>
      </trkpt>
      <trkpt lat="42.812293" lon="0.628064">
        <ele>1064.6</ele>
        <time>2020-05-17T09:22:59Z</time>
      </trkpt>
      <trkpt lat="42.812379" lon="0.628169">
        <ele>1064.6</ele>
        <time>2020-05-17T09:23:10Z</time>
      </trkpt>
      <trkpt lat="42.812484" lon="0.628286">
        <ele>1062.3</ele>
        <time>2020-05-17T09:23:20Z</time>
      </trkpt>
      <trkpt lat="42.812580" lon="0.628444">
        <ele>1062.3</ele>
        <time>2020-05-17T09:23:31Z</time>
      </trkpt>
      <trkpt lat="42.812680" lon="0.628637">
        <ele>1060.7</ele>
        <time>2020-05-17T09:23:44Z</time>
      </trkpt>
      <trkpt lat="42.812806" lon="0.628848">
        <ele>1060.7</ele>
        <time>2020-05-17T09:23:58Z</time>
      </trkpt>
      <trkpt lat="42.812874" lon="0.629059">
        <ele>1059.7</ele>
        <time>2020-05-17T09:24:10Z</time>
      </trkpt>
      <trkpt lat="42.812950" lon="0.629283">
        <ele>1059.6</ele>
        <time>2020-05-17T09:24:22Z</time>
      </trkpt>
      <trkpt lat="42.813046" lon="0.629496">
        <ele>1059.5</ele>
        <time>2020-05-17T09:24:35Z</time>
      </trkpt>
      <trkpt lat="42.813164" lon="0.629627">
        <ele>1059.4</ele>
        <time>2020-05-17T09:24:48Z</time>
      </trkpt>
      <trkpt lat="42.813300" lon="0.629851">
        <ele>1059.2</ele>
        <time>2020-05-17T09:25:02Z</time>
      </trkpt>
      <trkpt lat="42.813428" lon="0.630049">
        <ele>1061.2</ele>
        <time>2020-05-17T09:25:18Z</time>
      </trkpt>
      <trkpt lat="42.813375" lon="0.630199">
        <ele>1061.7</ele>
        <time>2020-05-17T09:25:35Z</time>
      </trkpt>
      <trkpt lat="42.813269" lon="0.630315">
        <ele>1062.3</ele>
        <time>2020-05-17T09:25:47Z</time>
      </trkpt>
      <trkpt lat="42.813186" lon="0.630434">
        <ele>1062.9</ele>
        <time>2020-05-17T09:25:56Z</time>
      </trkpt>
      <trkpt lat="42.813097" lon="0.630553">
        <ele>1063.5</ele>
        <time>2020-05-17T09:26:05Z</time>
      </trkpt>
      <trkpt lat="42.813027" lon="0.630701">
        <ele>1065.0</ele>
        <time>2020-05-17T09:26:17Z</time>
      </trkpt>
      <trkpt lat="42.812952" lon="0.630825">
        <ele>1065.8</ele>
        <time>2020-05-17T09:26:28Z</time>
      </trkpt>
      <trkpt lat="42.812867" lon="0.630943">
        <ele>1067.3</ele>
        <time>2020-05-17T09:26:36Z</time>
      </trkpt>
      <trkpt lat="42.812820" lon="0.631111">
        <ele>1068.1</ele>
        <time>2020-05-17T09:26:45Z</time>
      </trkpt>
      <trkpt lat="42.812775" lon="0.631277">
        <ele>1068.0</ele>
        <time>2020-05-17T09:26:55Z</time>
      </trkpt>
      <trkpt lat="42.812747" lon="0.631490">
        <ele>1068.8</ele>
        <time>2020-05-17T09:27:05Z</time>
      </trkpt>
      <trkpt lat="42.812736" lon="0.631649">
        <ele>1068.8</ele>
        <time>2020-05-17T09:27:13Z</time>
      </trkpt>
      <trkpt lat="42.812750" lon="0.631822">
        <ele>1068.8</ele>
        <time>2020-05-17T09:27:22Z</time>
      </trkpt>
      <trkpt lat="42.812759" lon="0.632010">
        <ele>1068.8</ele>
        <time>2020-05-17T09:27:32Z</time>
      </trkpt>
      <trkpt lat="42.812773" lon="0.632210">
        <ele>1068.8</ele>
        <time>2020-05-17T09:27:45Z</time>
      </trkpt>
      <trkpt lat="42.812791" lon="0.632399">
        <ele>1066.5</ele>
        <time>2020-05-17T09:27:59Z</time>
      </trkpt>
      <trkpt lat="42.812790" lon="0.632586">
        <ele>1064.8</ele>
        <time>2020-05-17T09:28:13Z</time>
      </trkpt>
      <trkpt lat="42.812773" lon="0.632816">
        <ele>1063.1</ele>
        <time>2020-05-17T09:28:26Z</time>
      </trkpt>
      <trkpt lat="42.812842" lon="0.632982">
        <ele>1062.2</ele>
        <time>2020-05-17T09:28:36Z</time>
      </trkpt>
      <trkpt lat="42.812982" lon="0.633045">
        <ele>1060.5</ele>
        <time>2020-05-17T09:28:49Z</time>
      </trkpt>
      <trkpt lat="42.813115" lon="0.633223">
        <ele>1060.4</ele>
        <time>2020-05-17T09:29:01Z</time>
      </trkpt>
      <trkpt lat="42.813257" lon="0.633345">
        <ele>1058.7</ele>
        <time>2020-05-17T09:29:15Z</time>
      </trkpt>
      <trkpt lat="42.813389" lon="0.633475">
        <ele>1057.7</ele>
        <time>2020-05-17T09:29:25Z</time>
      </trkpt>
      <trkpt lat="42.813484" lon="0.633617">
        <ele>1055.9</ele>
        <time>2020-05-17T09:29:36Z</time>
      </trkpt>
      <trkpt lat="42.813591" lon="0.633757">
        <ele>1054.9</ele>
        <time>2020-05-17T09:29:46Z</time>
      </trkpt>
      <trkpt lat="42.813695" lon="0.633875">
        <ele>1053.8</ele>
        <time>2020-05-17T09:29:58Z</time>
      </trkpt>
      <trkpt lat="42.813783" lon="0.634020">
        <ele>1052.9</ele>
        <time>2020-05-17T09:30:07Z</time>
      </trkpt>
      <trkpt lat="42.813860" lon="0.634190">
        <ele>1052.8</ele>
        <time>2020-05-17T09:30:17Z</time>
      </trkpt>
      <trkpt lat="42.813918" lon="0.634368">
        <ele>1051.8</ele>
        <time>2020-05-17T09:30:26Z</time>
      </trkpt>
      <trkpt lat="42.813979" lon="0.634508">
        <ele>1050.9</ele>
        <time>2020-05-17T09:30:34Z</time>
      </trkpt>
      <trkpt lat="42.814018" lon="0.634613">
        <ele>1050.9</ele>
        <time>2020-05-17T09:30:47Z</time>
      </trkpt>
      <trkpt lat="42.814043" lon="0.634740">
        <ele>1050.0</ele>
        <time>2020-05-17T09:31:11Z</time>
      </trkpt>
      <trkpt lat="42.814089" lon="0.634853">
        <ele>1049.2</ele>
        <time>2020-05-17T09:31:20Z</time>
      </trkpt>
      <trkpt lat="42.814162" lon="0.634965">
        <ele>1048.3</ele>
        <time>2020-05-17T09:31:29Z</time>
      </trkpt>
      <trkpt lat="42.814229" lon="0.635101">
        <ele>1047.5</ele>
        <time>2020-05-17T09:31:37Z</time>
      </trkpt>
      <trkpt lat="42.814285" lon="0.635275">
        <ele>1047.5</ele>
        <time>2020-05-17T09:31:47Z</time>
      </trkpt>
      <trkpt lat="42.814300" lon="0.635466">
        <ele>1045.8</ele>
        <time>2020-05-17T09:31:58Z</time>
      </trkpt>
      <trkpt lat="42.814329" lon="0.635663">
        <ele>1044.2</ele>
        <time>2020-05-17T09:32:10Z</time>
      </trkpt>
      <trkpt lat="42.814357" lon="0.635821">
        <ele>1043.4</ele>
        <time>2020-05-17T09:32:18Z</time>
      </trkpt>
      <trkpt lat="42.814423" lon="0.636014">
        <ele>1040.7</ele>
        <time>2020-05-17T09:32:29Z</time>
      </trkpt>
      <trkpt lat="42.814553" lon="0.636104">
        <ele>1039.0</ele>
        <time>2020-05-17T09:32:42Z</time>
      </trkpt>
      <trkpt lat="42.814739" lon="0.636152">
        <ele>1037.2</ele>
        <time>2020-05-17T09:32:57Z</time>
      </trkpt>
      <trkpt lat="42.814920" lon="0.636276">
        <ele>1036.2</ele>
        <time>2020-05-17T09:33:11Z</time>
      </trkpt>
      <trkpt lat="42.815015" lon="0.636298">
        <ele>1035.3</ele>
        <time>2020-05-17T09:33:27Z</time>
      </trkpt>
      <trkpt lat="42.815075" lon="0.636336">
        <ele>1035.1</ele>
        <time>2020-05-17T09:33:45Z</time>
      </trkpt>
      <trkpt lat="42.815103" lon="0.636363">
        <ele>1034.7</ele>
        <time>2020-05-17T09:34:25Z</time>
      </trkpt>
      <trkpt lat="42.815055" lon="0.636454">
        <ele>1034.4</ele>
        <time>2020-05-17T09:35:02Z</time>
      </trkpt>
      <trkpt lat="42.814928" lon="0.636647">
        <ele>1036.9</ele>
        <time>2020-05-17T09:35:18Z</time>
      </trkpt>
      <trkpt lat="42.814848" lon="0.636770">
        <ele>1038.4</ele>
        <time>2020-05-17T09:35:31Z</time>
      </trkpt>
      <trkpt lat="42.814770" lon="0.636923">
        <ele>1039.1</ele>
        <time>2020-05-17T09:35:44Z</time>
      </trkpt>
      <trkpt lat="42.814736" lon="0.637094">
        <ele>1039.9</ele>
        <time>2020-05-17T09:35:57Z</time>
      </trkpt>
      <trkpt lat="42.814735" lon="0.637298">
        <ele>1039.8</ele>
        <time>2020-05-17T09:36:10Z</time>
      </trkpt>
      <trkpt lat="42.814713" lon="0.637518">
        <ele>1039.8</ele>
        <time>2020-05-17T09:36:22Z</time>
      </trkpt>
      <trkpt lat="42.814659" lon="0.637712">
        <ele>1039.7</ele>
        <time>2020-05-17T09:36:33Z</time>
      </trkpt>
      <trkpt lat="42.814607" lon="0.637886">
        <ele>1039.7</ele>
        <time>2020-05-17T09:36:43Z</time>
      </trkpt>
      <trkpt lat="42.814561" lon="0.638068">
        <ele>1039.7</ele>
        <time>2020-05-17T09:36:56Z</time>
      </trkpt>
      <trkpt lat="42.814519" lon="0.638250">
        <ele>1037.1</ele>
        <time>2020-05-17T09:37:08Z</time>
      </trkpt>
      <trkpt lat="42.814482" lon="0.638461">
        <ele>1036.3</ele>
        <time>2020-05-17T09:37:22Z</time>
      </trkpt>
      <trkpt lat="42.814436" lon="0.638728">
        <ele>1033.8</ele>
        <time>2020-05-17T09:37:36Z</time>
      </trkpt>
      <trkpt lat="42.814399" lon="0.638936">
        <ele>1033.0</ele>
        <time>2020-05-17T09:37:49Z</time>
      </trkpt>
      <trkpt lat="42.814353" lon="0.639213">
        <ele>1030.3</ele>
        <time>2020-05-17T09:38:04Z</time>
      </trkpt>
      <trkpt lat="42.814283" lon="0.639502">
        <ele>1028.5</ele>
        <time>2020-05-17T09:38:20Z</time>
      </trkpt>
      <trkpt lat="42.814196" lon="0.639723">
        <ele>1027.4</ele>
        <time>2020-05-17T09:38:32Z</time>
      </trkpt>
      <trkpt lat="42.814116" lon="0.639955">
        <ele>1025.5</ele>
        <time>2020-05-17T09:38:48Z</time>
      </trkpt>
      <trkpt lat="42.814070" lon="0.640214">
        <ele>1023.8</ele>
        <time>2020-05-17T09:39:03Z</time>
      </trkpt>
      <trkpt lat="42.814078" lon="0.640401">
        <ele>1021.1</ele>
        <time>2020-05-17T09:39:13Z</time>
      </trkpt>
      <trkpt lat="42.814124" lon="0.640643">
        <ele>1019.3</ele>
        <time>2020-05-17T09:39:26Z</time>
      </trkpt>
      <trkpt lat="42.814056" lon="0.640811">
        <ele>1019.1</ele>
        <time>2020-05-17T09:39:46Z</time>
      </trkpt>
      <trkpt lat="42.814023" lon="0.640873">
        <ele>1019.0</ele>
        <time>2020-05-17T09:40:08Z</time>
      </trkpt>
      <trkpt lat="42.813948" lon="0.640851">
        <ele>1019.9</ele>
        <time>2020-05-17T09:43:00Z</time>
      </trkpt>
      <trkpt lat="42.813913" lon="0.640848">
        <ele>1020.7</ele>
        <time>2020-05-17T09:44:07Z</time>
      </trkpt>
      <trkpt lat="42.813885" lon="0.640926">
        <ele>1023.6</ele>
        <time>2020-05-17T09:44:39Z</time>
      </trkpt>
      <trkpt lat="42.813968" lon="0.641063">
        <ele>1027.2</ele>
        <time>2020-05-17T09:44:56Z</time>
      </trkpt>
      <trkpt lat="42.814032" lon="0.641238">
        <ele>1030.7</ele>
        <time>2020-05-17T09:45:13Z</time>
      </trkpt>
      <trkpt lat="42.814067" lon="0.641365">
        <ele>1033.3</ele>
        <time>2020-05-17T09:45:28Z</time>
      </trkpt>
      <trkpt lat="42.814109" lon="0.641486">
        <ele>1035.0</ele>
        <time>2020-05-17T09:45:39Z</time>
      </trkpt>
      <trkpt lat="42.814124" lon="0.641616">
        <ele>1037.4</ele>
        <time>2020-05-17T09:45:51Z</time>
      </trkpt>
      <trkpt lat="42.814147" lon="0.641812">
        <ele>1040.1</ele>
        <time>2020-05-17T09:46:06Z</time>
      </trkpt>
      <trkpt lat="42.814239" lon="0.641929">
        <ele>1044.4</ele>
        <time>2020-05-17T09:46:25Z</time>
      </trkpt>
      <trkpt lat="42.814279" lon="0.642053">
        <ele>1047.6</ele>
        <time>2020-05-17T09:46:44Z</time>
      </trkpt>
      <trkpt lat="42.814310" lon="0.642250">
        <ele>1050.7</ele>
        <time>2020-05-17T09:47:01Z</time>
      </trkpt>
      <trkpt lat="42.814358" lon="0.642350">
        <ele>1054.1</ele>
        <time>2020-05-17T09:47:17Z</time>
      </trkpt>
      <trkpt lat="42.814441" lon="0.642438">
        <ele>1057.6</ele>
        <time>2020-05-17T09:47:35Z</time>
      </trkpt>
      <trkpt lat="42.814511" lon="0.642531">
        <ele>1063.2</ele>
        <time>2020-05-17T09:49:13Z</time>
      </trkpt>
      <trkpt lat="42.814471" lon="0.642647">
        <ele>1064.1</ele>
        <time>2020-05-17T09:49:54Z</time>
      </trkpt>
      <trkpt lat="42.814393" lon="0.642657">
        <ele>1068.8</ele>
        <time>2020-05-17T09:50:13Z</time>
      </trkpt>
      <trkpt lat="42.814340" lon="0.642732">
        <ele>1074.7</ele>
        <time>2020-05-17T09:51:32Z</time>
      </trkpt>
      <trkpt lat="42.814264" lon="0.642869">
        <ele>1078.4</ele>
        <time>2020-05-17T09:51:54Z</time>
      </trkpt>
      <trkpt lat="42.814190" lon="0.643006">
        <ele>1082.5</ele>
        <time>2020-05-17T09:52:14Z</time>
      </trkpt>
      <trkpt lat="42.814101" lon="0.643106">
        <ele>1088.2</ele>
        <time>2020-05-17T09:52:35Z</time>
      </trkpt>
      <trkpt lat="42.813978" lon="0.643196">
        <ele>1092.3</ele>
        <time>2020-05-17T09:52:54Z</time>
      </trkpt>
      <trkpt lat="42.813869" lon="0.643290">
        <ele>1096.4</ele>
        <time>2020-05-17T09:53:15Z</time>
      </trkpt>
      <trkpt lat="42.813745" lon="0.643381">
        <ele>1101.3</ele>
        <time>2020-05-17T09:53:34Z</time>
      </trkpt>
      <trkpt lat="42.813615" lon="0.643473">
        <ele>1104.5</ele>
        <time>2020-05-17T09:53:54Z</time>
      </trkpt>
      <trkpt lat="42.813481" lon="0.643544">
        <ele>1107.7</ele>
        <time>2020-05-17T09:54:09Z</time>
      </trkpt>
      <trkpt lat="42.813363" lon="0.643616">
        <ele>1111.3</ele>
        <time>2020-05-17T09:54:27Z</time>
      </trkpt>
      <trkpt lat="42.813250" lon="0.643677">
        <ele>1115.4</ele>
        <time>2020-05-17T09:54:47Z</time>
      </trkpt>
      <trkpt lat="42.813108" lon="0.643746">
        <ele>1118.8</ele>
        <time>2020-05-17T09:55:05Z</time>
      </trkpt>
      <trkpt lat="42.812972" lon="0.643804">
        <ele>1122.1</ele>
        <time>2020-05-17T09:55:26Z</time>
      </trkpt>
      <trkpt lat="42.812835" lon="0.643917">
        <ele>1125.3</ele>
        <time>2020-05-17T09:55:45Z</time>
      </trkpt>
      <trkpt lat="42.812724" lon="0.644060">
        <ele>1128.6</ele>
        <time>2020-05-17T09:56:02Z</time>
      </trkpt>
      <trkpt lat="42.812617" lon="0.644220">
        <ele>1130.7</ele>
        <time>2020-05-17T09:56:18Z</time>
      </trkpt>
      <trkpt lat="42.812525" lon="0.644315">
        <ele>1133.7</ele>
        <time>2020-05-17T09:56:35Z</time>
      </trkpt>
      <trkpt lat="42.812419" lon="0.644488">
        <ele>1137.0</ele>
        <time>2020-05-17T09:56:51Z</time>
      </trkpt>
      <trkpt lat="42.812308" lon="0.644638">
        <ele>1140.9</ele>
        <time>2020-05-17T09:57:11Z</time>
      </trkpt>
      <trkpt lat="42.812251" lon="0.644781">
        <ele>1144.8</ele>
        <time>2020-05-17T09:57:28Z</time>
      </trkpt>
      <trkpt lat="42.812166" lon="0.644916">
        <ele>1148.3</ele>
        <time>2020-05-17T09:57:46Z</time>
      </trkpt>
      <trkpt lat="42.812104" lon="0.645040">
        <ele>1151.7</ele>
        <time>2020-05-17T09:58:09Z</time>
      </trkpt>
      <trkpt lat="42.812042" lon="0.645141">
        <ele>1154.7</ele>
        <time>2020-05-17T09:58:28Z</time>
      </trkpt>
      <trkpt lat="42.811962" lon="0.645240">
        <ele>1156.9</ele>
        <time>2020-05-17T09:58:44Z</time>
      </trkpt>
      <trkpt lat="42.811910" lon="0.645337">
        <ele>1160.1</ele>
        <time>2020-05-17T09:59:01Z</time>
      </trkpt>
      <trkpt lat="42.811856" lon="0.645450">
        <ele>1164.2</ele>
        <time>2020-05-17T09:59:19Z</time>
      </trkpt>
      <trkpt lat="42.811797" lon="0.645577">
        <ele>1168.1</ele>
        <time>2020-05-17T09:59:39Z</time>
      </trkpt>
      <trkpt lat="42.811739" lon="0.645722">
        <ele>1172.4</ele>
        <time>2020-05-17T09:59:58Z</time>
      </trkpt>
      <trkpt lat="42.811663" lon="0.645843">
        <ele>1176.4</ele>
        <time>2020-05-17T10:00:17Z</time>
      </trkpt>
      <trkpt lat="42.811632" lon="0.645942">
        <ele>1180.6</ele>
        <time>2020-05-17T10:00:36Z</time>
      </trkpt>
      <trkpt lat="42.811573" lon="0.646070">
        <ele>1185.9</ele>
        <time>2020-05-17T10:00:56Z</time>
      </trkpt>
      <trkpt lat="42.811488" lon="0.646232">
        <ele>1189.2</ele>
        <time>2020-05-17T10:01:15Z</time>
      </trkpt>
      <trkpt lat="42.811419" lon="0.646409">
        <ele>1193.4</ele>
        <time>2020-05-17T10:01:33Z</time>
      </trkpt>
      <trkpt lat="42.811357" lon="0.646629">
        <ele>1197.1</ele>
        <time>2020-05-17T10:01:52Z</time>
      </trkpt>
      <trkpt lat="42.811314" lon="0.646746">
        <ele>1200.2</ele>
        <time>2020-05-17T10:02:09Z</time>
      </trkpt>
      <trkpt lat="42.811186" lon="0.646882">
        <ele>1203.4</ele>
        <time>2020-05-17T10:02:25Z</time>
      </trkpt>
      <trkpt lat="42.811083" lon="0.647037">
        <ele>1207.6</ele>
        <time>2020-05-17T10:02:41Z</time>
      </trkpt>
      <trkpt lat="42.811008" lon="0.647213">
        <ele>1210.8</ele>
        <time>2020-05-17T10:02:58Z</time>
      </trkpt>
      <trkpt lat="42.810955" lon="0.647325">
        <ele>1214.1</ele>
        <time>2020-05-17T10:03:16Z</time>
      </trkpt>
      <trkpt lat="42.810928" lon="0.647437">
        <ele>1219.7</ele>
        <time>2020-05-17T10:03:36Z</time>
      </trkpt>
      <trkpt lat="42.810906" lon="0.647542">
        <ele>1219.6</ele>
        <time>2020-05-17T10:03:58Z</time>
      </trkpt>
      <trkpt lat="42.810851" lon="0.647568">
        <ele>1220.5</ele>
        <time>2020-05-17T10:04:24Z</time>
      </trkpt>
      <trkpt lat="42.810857" lon="0.647724">
        <ele>1225.1</ele>
        <time>2020-05-17T10:04:42Z</time>
      </trkpt>
      <trkpt lat="42.810844" lon="0.647850">
        <ele>1228.4</ele>
        <time>2020-05-17T10:05:04Z</time>
      </trkpt>
      <trkpt lat="42.810778" lon="0.648011">
        <ele>1233.0</ele>
        <time>2020-05-17T10:05:24Z</time>
      </trkpt>
      <trkpt lat="42.810759" lon="0.648196">
        <ele>1237.5</ele>
        <time>2020-05-17T10:05:43Z</time>
      </trkpt>
      <trkpt lat="42.810728" lon="0.648353">
        <ele>1241.0</ele>
        <time>2020-05-17T10:06:03Z</time>
      </trkpt>
      <trkpt lat="42.810667" lon="0.648558">
        <ele>1245.6</ele>
        <time>2020-05-17T10:06:24Z</time>
      </trkpt>
      <trkpt lat="42.810593" lon="0.648769">
        <ele>1248.7</ele>
        <time>2020-05-17T10:06:43Z</time>
      </trkpt>
      <trkpt lat="42.810498" lon="0.648933">
        <ele>1252.9</ele>
        <time>2020-05-17T10:07:02Z</time>
      </trkpt>
      <trkpt lat="42.810398" lon="0.649073">
        <ele>1256.7</ele>
        <time>2020-05-17T10:07:19Z</time>
      </trkpt>
      <trkpt lat="42.810321" lon="0.649210">
        <ele>1260.4</ele>
        <time>2020-05-17T10:07:39Z</time>
      </trkpt>
      <trkpt lat="42.810243" lon="0.649305">
        <ele>1263.1</ele>
        <time>2020-05-17T10:07:55Z</time>
      </trkpt>
      <trkpt lat="42.810202" lon="0.649451">
        <ele>1265.7</ele>
        <time>2020-05-17T10:08:14Z</time>
      </trkpt>
      <trkpt lat="42.810181" lon="0.649536">
        <ele>1269.2</ele>
        <time>2020-05-17T10:10:43Z</time>
      </trkpt>
      <trkpt lat="42.810261" lon="0.649643">
        <ele>1272.0</ele>
        <time>2020-05-17T10:11:01Z</time>
      </trkpt>
      <trkpt lat="42.810208" lon="0.649793">
        <ele>1277.3</ele>
        <time>2020-05-17T10:11:23Z</time>
      </trkpt>
      <trkpt lat="42.810172" lon="0.649918">
        <ele>1280.7</ele>
        <time>2020-05-17T10:11:39Z</time>
      </trkpt>
      <trkpt lat="42.810116" lon="0.650099">
        <ele>1284.2</ele>
        <time>2020-05-17T10:11:57Z</time>
      </trkpt>
      <trkpt lat="42.810042" lon="0.650217">
        <ele>1286.2</ele>
        <time>2020-05-17T10:12:14Z</time>
      </trkpt>
      <trkpt lat="42.809941" lon="0.650358">
        <ele>1288.2</ele>
        <time>2020-05-17T10:12:30Z</time>
      </trkpt>
      <trkpt lat="42.809847" lon="0.650492">
        <ele>1289.4</ele>
        <time>2020-05-17T10:12:46Z</time>
      </trkpt>
      <trkpt lat="42.809814" lon="0.650616">
        <ele>1292.2</ele>
        <time>2020-05-17T10:13:13Z</time>
      </trkpt>
      <trkpt lat="42.809767" lon="0.650732">
        <ele>1295.3</ele>
        <time>2020-05-17T10:13:35Z</time>
      </trkpt>
      <trkpt lat="42.809762" lon="0.650885">
        <ele>1299.3</ele>
        <time>2020-05-17T10:13:54Z</time>
      </trkpt>
      <trkpt lat="42.809796" lon="0.651056">
        <ele>1303.3</ele>
        <time>2020-05-17T10:14:12Z</time>
      </trkpt>
      <trkpt lat="42.809723" lon="0.651269">
        <ele>1306.8</ele>
        <time>2020-05-17T10:14:31Z</time>
      </trkpt>
      <trkpt lat="42.809616" lon="0.651373">
        <ele>1310.6</ele>
        <time>2020-05-17T10:14:51Z</time>
      </trkpt>
      <trkpt lat="42.809494" lon="0.651430">
        <ele>1313.2</ele>
        <time>2020-05-17T10:15:12Z</time>
      </trkpt>
      <trkpt lat="42.809358" lon="0.651444">
        <ele>1316.8</ele>
        <time>2020-05-17T10:15:28Z</time>
      </trkpt>
      <trkpt lat="42.809257" lon="0.651477">
        <ele>1320.5</ele>
        <time>2020-05-17T10:15:44Z</time>
      </trkpt>
      <trkpt lat="42.809136" lon="0.651523">
        <ele>1323.9</ele>
        <time>2020-05-17T10:16:02Z</time>
      </trkpt>
      <trkpt lat="42.809103" lon="0.651658">
        <ele>1327.9</ele>
        <time>2020-05-17T10:16:21Z</time>
      </trkpt>
      <trkpt lat="42.809084" lon="0.651788">
        <ele>1331.7</ele>
        <time>2020-05-17T10:16:39Z</time>
      </trkpt>
      <trkpt lat="42.809134" lon="0.651905">
        <ele>1333.4</ele>
        <time>2020-05-17T10:16:56Z</time>
      </trkpt>
      <trkpt lat="42.809139" lon="0.652039">
        <ele>1337.0</ele>
        <time>2020-05-17T10:17:13Z</time>
      </trkpt>
      <trkpt lat="42.809197" lon="0.652110">
        <ele>1344.9</ele>
        <time>2020-05-17T10:18:42Z</time>
      </trkpt>
      <trkpt lat="42.809297" lon="0.652099">
        <ele>1352.0</ele>
        <time>2020-05-17T10:27:45Z</time>
      </trkpt>
      <trkpt lat="42.809332" lon="0.652142">
        <ele>1352.4</ele>
        <time>2020-05-17T10:28:37Z</time>
      </trkpt>
      <trkpt lat="42.809335" lon="0.652249">
        <ele>1352.6</ele>
        <time>2020-05-17T10:28:55Z</time>
      </trkpt>
      <trkpt lat="42.809356" lon="0.652386">
        <ele>1355.5</ele>
        <time>2020-05-17T10:29:11Z</time>
      </trkpt>
      <trkpt lat="42.809391" lon="0.652522">
        <ele>1358.0</ele>
        <time>2020-05-17T10:29:25Z</time>
      </trkpt>
      <trkpt lat="42.809428" lon="0.652642">
        <ele>1360.5</ele>
        <time>2020-05-17T10:29:41Z</time>
      </trkpt>
      <trkpt lat="42.809471" lon="0.652760">
        <ele>1363.4</ele>
        <time>2020-05-17T10:30:04Z</time>
      </trkpt>
      <trkpt lat="42.809540" lon="0.652864">
        <ele>1366.2</ele>
        <time>2020-05-17T10:30:21Z</time>
      </trkpt>
      <trkpt lat="42.809611" lon="0.652959">
        <ele>1371.2</ele>
        <time>2020-05-17T10:30:44Z</time>
      </trkpt>
      <trkpt lat="42.809653" lon="0.653071">
        <ele>1375.3</ele>
        <time>2020-05-17T10:31:08Z</time>
      </trkpt>
      <trkpt lat="42.809692" lon="0.653192">
        <ele>1379.5</ele>
        <time>2020-05-17T10:31:30Z</time>
      </trkpt>
      <trkpt lat="42.809775" lon="0.653297">
        <ele>1384.0</ele>
        <time>2020-05-17T10:31:52Z</time>
      </trkpt>
      <trkpt lat="42.809794" lon="0.653427">
        <ele>1387.5</ele>
        <time>2020-05-17T10:32:14Z</time>
      </trkpt>
      <trkpt lat="42.809839" lon="0.653554">
        <ele>1392.1</ele>
        <time>2020-05-17T10:32:37Z</time>
      </trkpt>
      <trkpt lat="42.809913" lon="0.653649">
        <ele>1396.0</ele>
        <time>2020-05-17T10:32:56Z</time>
      </trkpt>
      <trkpt lat="42.809966" lon="0.653770">
        <ele>1400.3</ele>
        <time>2020-05-17T10:33:19Z</time>
      </trkpt>
      <trkpt lat="42.809965" lon="0.653897">
        <ele>1403.8</ele>
        <time>2020-05-17T10:33:38Z</time>
      </trkpt>
      <trkpt lat="42.810010" lon="0.654025">
        <ele>1407.2</ele>
        <time>2020-05-17T10:34:00Z</time>
      </trkpt>
      <trkpt lat="42.810104" lon="0.654107">
        <ele>1410.9</ele>
        <time>2020-05-17T10:34:19Z</time>
      </trkpt>
      <trkpt lat="42.810219" lon="0.654132">
        <ele>1414.2</ele>
        <time>2020-05-17T10:34:41Z</time>
      </trkpt>
      <trkpt lat="42.810311" lon="0.654086">
        <ele>1416.8</ele>
        <time>2020-05-17T10:34:59Z</time>
      </trkpt>
      <trkpt lat="42.810350" lon="0.653966">
        <ele>1416.8</ele>
        <time>2020-05-17T10:35:14Z</time>
      </trkpt>
      <trkpt lat="42.810381" lon="0.653865">
        <ele>1416.9</ele>
        <time>2020-05-17T10:35:32Z</time>
      </trkpt>
      <trkpt lat="42.810412" lon="0.653750">
        <ele>1417.1</ele>
        <time>2020-05-17T10:35:47Z</time>
      </trkpt>
      <trkpt lat="42.810460" lon="0.653642">
        <ele>1417.2</ele>
        <time>2020-05-17T10:36:00Z</time>
      </trkpt>
      <trkpt lat="42.810509" lon="0.653526">
        <ele>1417.4</ele>
        <time>2020-05-17T10:36:14Z</time>
      </trkpt>
      <trkpt lat="42.810589" lon="0.653421">
        <ele>1417.6</ele>
        <time>2020-05-17T10:36:31Z</time>
      </trkpt>
      <trkpt lat="42.810643" lon="0.653277">
        <ele>1415.4</ele>
        <time>2020-05-17T10:36:43Z</time>
      </trkpt>
      <trkpt lat="42.810669" lon="0.653115">
        <ele>1414.7</ele>
        <time>2020-05-17T10:36:55Z</time>
      </trkpt>
      <trkpt lat="42.810702" lon="0.652982">
        <ele>1414.0</ele>
        <time>2020-05-17T10:37:06Z</time>
      </trkpt>
      <trkpt lat="42.810740" lon="0.652848">
        <ele>1413.4</ele>
        <time>2020-05-17T10:37:17Z</time>
      </trkpt>
      <trkpt lat="42.810786" lon="0.652729">
        <ele>1413.5</ele>
        <time>2020-05-17T10:37:27Z</time>
      </trkpt>
      <trkpt lat="42.810862" lon="0.652618">
        <ele>1413.7</ele>
        <time>2020-05-17T10:37:40Z</time>
      </trkpt>
      <trkpt lat="42.810932" lon="0.652517">
        <ele>1413.9</ele>
        <time>2020-05-17T10:37:54Z</time>
      </trkpt>
      <trkpt lat="42.811006" lon="0.652415">
        <ele>1413.2</ele>
        <time>2020-05-17T10:38:09Z</time>
      </trkpt>
      <trkpt lat="42.811097" lon="0.652300">
        <ele>1413.5</ele>
        <time>2020-05-17T10:38:26Z</time>
      </trkpt>
      <trkpt lat="42.811171" lon="0.652177">
        <ele>1412.8</ele>
        <time>2020-05-17T10:38:38Z</time>
      </trkpt>
      <trkpt lat="42.811260" lon="0.652045">
        <ele>1412.2</ele>
        <time>2020-05-17T10:38:50Z</time>
      </trkpt>
      <trkpt lat="42.811352" lon="0.651954">
        <ele>1412.4</ele>
        <time>2020-05-17T10:39:02Z</time>
      </trkpt>
      <trkpt lat="42.811430" lon="0.651867">
        <ele>1411.7</ele>
        <time>2020-05-17T10:39:13Z</time>
      </trkpt>
      <trkpt lat="42.811529" lon="0.651744">
        <ele>1411.8</ele>
        <time>2020-05-17T10:39:25Z</time>
      </trkpt>
      <trkpt lat="42.811618" lon="0.651621">
        <ele>1411.9</ele>
        <time>2020-05-17T10:39:34Z</time>
      </trkpt>
      <trkpt lat="42.811687" lon="0.651480">
        <ele>1412.0</ele>
        <time>2020-05-17T10:39:43Z</time>
      </trkpt>
      <trkpt lat="42.811761" lon="0.651354">
        <ele>1411.3</ele>
        <time>2020-05-17T10:39:53Z</time>
      </trkpt>
      <trkpt lat="42.811817" lon="0.651225">
        <ele>1410.6</ele>
        <time>2020-05-17T10:40:02Z</time>
      </trkpt>
      <trkpt lat="42.811859" lon="0.651100">
        <ele>1410.7</ele>
        <time>2020-05-17T10:40:11Z</time>
      </trkpt>
      <trkpt lat="42.811922" lon="0.650978">
        <ele>1409.9</ele>
        <time>2020-05-17T10:40:20Z</time>
      </trkpt>
      <trkpt lat="42.811950" lon="0.650815">
        <ele>1410.0</ele>
        <time>2020-05-17T10:40:29Z</time>
      </trkpt>
      <trkpt lat="42.811974" lon="0.650672">
        <ele>1409.3</ele>
        <time>2020-05-17T10:40:38Z</time>
      </trkpt>
      <trkpt lat="42.811996" lon="0.650553">
        <ele>1408.7</ele>
        <time>2020-05-17T10:40:53Z</time>
      </trkpt>
      <trkpt lat="42.812047" lon="0.650436">
        <ele>1408.8</ele>
        <time>2020-05-17T10:41:03Z</time>
      </trkpt>
      <trkpt lat="42.812100" lon="0.650325">
        <ele>1408.2</ele>
        <time>2020-05-17T10:41:12Z</time>
      </trkpt>
      <trkpt lat="42.812160" lon="0.650213">
        <ele>1408.3</ele>
        <time>2020-05-17T10:41:22Z</time>
      </trkpt>
      <trkpt lat="42.812219" lon="0.650104">
        <ele>1407.6</ele>
        <time>2020-05-17T10:41:31Z</time>
      </trkpt>
      <trkpt lat="42.812281" lon="0.649958">
        <ele>1407.7</ele>
        <time>2020-05-17T10:41:41Z</time>
      </trkpt>
      <trkpt lat="42.812352" lon="0.649819">
        <ele>1407.0</ele>
        <time>2020-05-17T10:41:50Z</time>
      </trkpt>
      <trkpt lat="42.812409" lon="0.649704">
        <ele>1407.1</ele>
        <time>2020-05-17T10:41:59Z</time>
      </trkpt>
      <trkpt lat="42.812458" lon="0.649563">
        <ele>1406.3</ele>
        <time>2020-05-17T10:42:08Z</time>
      </trkpt>
      <trkpt lat="42.812521" lon="0.649433">
        <ele>1406.5</ele>
        <time>2020-05-17T10:42:17Z</time>
      </trkpt>
      <trkpt lat="42.812578" lon="0.649303">
        <ele>1406.6</ele>
        <time>2020-05-17T10:42:27Z</time>
      </trkpt>
      <trkpt lat="42.812629" lon="0.649176">
        <ele>1405.9</ele>
        <time>2020-05-17T10:42:36Z</time>
      </trkpt>
      <trkpt lat="42.812657" lon="0.649038">
        <ele>1406.0</ele>
        <time>2020-05-17T10:42:45Z</time>
      </trkpt>
      <trkpt lat="42.812672" lon="0.648870">
        <ele>1406.1</ele>
        <time>2020-05-17T10:42:56Z</time>
      </trkpt>
      <trkpt lat="42.812703" lon="0.648711">
        <ele>1406.3</ele>
        <time>2020-05-17T10:43:07Z</time>
      </trkpt>
      <trkpt lat="42.812749" lon="0.648578">
        <ele>1405.6</ele>
        <time>2020-05-17T10:43:18Z</time>
      </trkpt>
      <trkpt lat="42.812814" lon="0.648492">
        <ele>1405.0</ele>
        <time>2020-05-17T10:43:29Z</time>
      </trkpt>
      <trkpt lat="42.812888" lon="0.648398">
        <ele>1405.1</ele>
        <time>2020-05-17T10:43:39Z</time>
      </trkpt>
      <trkpt lat="42.812971" lon="0.648300">
        <ele>1404.5</ele>
        <time>2020-05-17T10:43:49Z</time>
      </trkpt>
      <trkpt lat="42.813065" lon="0.648219">
        <ele>1404.7</ele>
        <time>2020-05-17T10:44:00Z</time>
      </trkpt>
      <trkpt lat="42.813163" lon="0.648197">
        <ele>1404.8</ele>
        <time>2020-05-17T10:44:11Z</time>
      </trkpt>
      <trkpt lat="42.813236" lon="0.648298">
        <ele>1405.6</ele>
        <time>2020-05-17T10:45:18Z</time>
      </trkpt>
      <trkpt lat="42.813211" lon="0.648401">
        <ele>1405.8</ele>
        <time>2020-05-17T10:45:41Z</time>
      </trkpt>
      <trkpt lat="42.813156" lon="0.648491">
        <ele>1413.7</ele>
        <time>2020-05-17T10:46:00Z</time>
      </trkpt>
      <trkpt lat="42.813099" lon="0.648613">
        <ele>1418.1</ele>
        <time>2020-05-17T10:46:17Z</time>
      </trkpt>
      <trkpt lat="42.813110" lon="0.648767">
        <ele>1422.4</ele>
        <time>2020-05-17T10:46:38Z</time>
      </trkpt>
      <trkpt lat="42.813120" lon="0.648910">
        <ele>1426.1</ele>
        <time>2020-05-17T10:47:03Z</time>
      </trkpt>
      <trkpt lat="42.813113" lon="0.649056">
        <ele>1427.8</ele>
        <time>2020-05-17T10:47:24Z</time>
      </trkpt>
      <trkpt lat="42.813124" lon="0.649196">
        <ele>1432.4</ele>
        <time>2020-05-17T10:47:46Z</time>
      </trkpt>
      <trkpt lat="42.813136" lon="0.649331">
        <ele>1437.9</ele>
        <time>2020-05-17T10:48:10Z</time>
      </trkpt>
      <trkpt lat="42.813143" lon="0.649446">
        <ele>1441.4</ele>
        <time>2020-05-17T10:48:32Z</time>
      </trkpt>
      <trkpt lat="42.813143" lon="0.649579">
        <ele>1446.6</ele>
        <time>2020-05-17T10:48:54Z</time>
      </trkpt>
      <trkpt lat="42.813114" lon="0.649675">
        <ele>1450.7</ele>
        <time>2020-05-17T10:49:25Z</time>
      </trkpt>
      <trkpt lat="42.813158" lon="0.649767">
        <ele>1454.0</ele>
        <time>2020-05-17T10:49:56Z</time>
      </trkpt>
      <trkpt lat="42.813204" lon="0.649887">
        <ele>1457.7</ele>
        <time>2020-05-17T10:50:17Z</time>
      </trkpt>
      <trkpt lat="42.813227" lon="0.650015">
        <ele>1461.9</ele>
        <time>2020-05-17T10:50:40Z</time>
      </trkpt>
      <trkpt lat="42.813215" lon="0.650150">
        <ele>1467.5</ele>
        <time>2020-05-17T10:51:05Z</time>
      </trkpt>
      <trkpt lat="42.813198" lon="0.650273">
        <ele>1474.3</ele>
        <time>2020-05-17T10:51:40Z</time>
      </trkpt>
      <trkpt lat="42.813187" lon="0.650389">
        <ele>1478.1</ele>
        <time>2020-05-17T10:52:08Z</time>
      </trkpt>
      <trkpt lat="42.813108" lon="0.650476">
        <ele>1483.0</ele>
        <time>2020-05-17T10:54:13Z</time>
      </trkpt>
      <trkpt lat="42.813036" lon="0.650526">
        <ele>1486.2</ele>
        <time>2020-05-17T10:55:57Z</time>
      </trkpt>
      <trkpt lat="42.813067" lon="0.650602">
        <ele>1489.1</ele>
        <time>2020-05-17T10:57:27Z</time>
      </trkpt>
      <trkpt lat="42.813091" lon="0.650602">
        <ele>1489.9</ele>
        <time>2020-05-17T10:59:06Z</time>
      </trkpt>
      <trkpt lat="42.813106" lon="0.650712">
        <ele>1493.5</ele>
        <time>2020-05-17T10:59:34Z</time>
      </trkpt>
      <trkpt lat="42.813146" lon="0.650830">
        <ele>1499.0</ele>
        <time>2020-05-17T10:59:57Z</time>
      </trkpt>
      <trkpt lat="42.813157" lon="0.650954">
        <ele>1502.5</ele>
        <time>2020-05-17T11:00:19Z</time>
      </trkpt>
      <trkpt lat="42.813176" lon="0.651078">
        <ele>1505.9</ele>
        <time>2020-05-17T11:00:39Z</time>
      </trkpt>
      <trkpt lat="42.813188" lon="0.651213">
        <ele>1510.5</ele>
        <time>2020-05-17T11:01:02Z</time>
      </trkpt>
      <trkpt lat="42.813187" lon="0.651346">
        <ele>1515.0</ele>
        <time>2020-05-17T11:01:27Z</time>
      </trkpt>
      <trkpt lat="42.813202" lon="0.651457">
        <ele>1519.3</ele>
        <time>2020-05-17T11:01:52Z</time>
      </trkpt>
      <trkpt lat="42.813223" lon="0.651581">
        <ele>1524.5</ele>
        <time>2020-05-17T11:02:18Z</time>
      </trkpt>
      <trkpt lat="42.813233" lon="0.651703">
        <ele>1529.6</ele>
        <time>2020-05-17T11:02:44Z</time>
      </trkpt>
      <trkpt lat="42.813254" lon="0.651811">
        <ele>1533.1</ele>
        <time>2020-05-17T11:03:07Z</time>
      </trkpt>
      <trkpt lat="42.813256" lon="0.651932">
        <ele>1538.3</ele>
        <time>2020-05-17T11:03:37Z</time>
      </trkpt>
      <trkpt lat="42.813284" lon="0.652046">
        <ele>1543.5</ele>
        <time>2020-05-17T11:04:04Z</time>
      </trkpt>
      <trkpt lat="42.813344" lon="0.652144">
        <ele>1548.0</ele>
        <time>2020-05-17T11:04:29Z</time>
      </trkpt>
      <trkpt lat="42.813369" lon="0.652271">
        <ele>1553.0</ele>
        <time>2020-05-17T11:05:01Z</time>
      </trkpt>
      <trkpt lat="42.813382" lon="0.652348">
        <ele>1554.8</ele>
        <time>2020-05-17T11:05:42Z</time>
      </trkpt>
      <trkpt lat="42.813412" lon="0.652477">
        <ele>1558.5</ele>
        <time>2020-05-17T11:06:03Z</time>
      </trkpt>
      <trkpt lat="42.813451" lon="0.652603">
        <ele>1560.9</ele>
        <time>2020-05-17T11:06:24Z</time>
      </trkpt>
      <trkpt lat="42.813495" lon="0.652750">
        <ele>1564.4</ele>
        <time>2020-05-17T11:06:41Z</time>
      </trkpt>
      <trkpt lat="42.813462" lon="0.652878">
        <ele>1568.7</ele>
        <time>2020-05-17T11:07:02Z</time>
      </trkpt>
      <trkpt lat="42.813444" lon="0.653010">
        <ele>1572.1</ele>
        <time>2020-05-17T11:07:23Z</time>
      </trkpt>
      <trkpt lat="42.813472" lon="0.653132">
        <ele>1575.7</ele>
        <time>2020-05-17T11:07:45Z</time>
      </trkpt>
      <trkpt lat="42.813468" lon="0.653261">
        <ele>1579.7</ele>
        <time>2020-05-17T11:08:10Z</time>
      </trkpt>
      <trkpt lat="42.813499" lon="0.653397">
        <ele>1584.1</ele>
        <time>2020-05-17T11:08:32Z</time>
      </trkpt>
      <trkpt lat="42.813494" lon="0.653535">
        <ele>1587.6</ele>
        <time>2020-05-17T11:08:52Z</time>
      </trkpt>
      <trkpt lat="42.813499" lon="0.653668">
        <ele>1592.4</ele>
        <time>2020-05-17T11:09:15Z</time>
      </trkpt>
      <trkpt lat="42.813496" lon="0.653794">
        <ele>1596.9</ele>
        <time>2020-05-17T11:09:42Z</time>
      </trkpt>
      <trkpt lat="42.813516" lon="0.653922">
        <ele>1600.4</ele>
        <time>2020-05-17T11:10:10Z</time>
      </trkpt>
      <trkpt lat="42.813513" lon="0.654061">
        <ele>1604.6</ele>
        <time>2020-05-17T11:10:37Z</time>
      </trkpt>
      <trkpt lat="42.813491" lon="0.654200">
        <ele>1607.8</ele>
        <time>2020-05-17T11:11:00Z</time>
      </trkpt>
      <trkpt lat="42.813437" lon="0.654329">
        <ele>1612.0</ele>
        <time>2020-05-17T11:11:23Z</time>
      </trkpt>
      <trkpt lat="42.813397" lon="0.654465">
        <ele>1615.3</ele>
        <time>2020-05-17T11:11:45Z</time>
      </trkpt>
      <trkpt lat="42.813334" lon="0.654539">
        <ele>1618.4</ele>
        <time>2020-05-17T11:12:10Z</time>
      </trkpt>
      <trkpt lat="42.813400" lon="0.654613">
        <ele>1622.8</ele>
        <time>2020-05-17T11:12:43Z</time>
      </trkpt>
      <trkpt lat="42.813381" lon="0.654737">
        <ele>1625.4</ele>
        <time>2020-05-17T11:13:09Z</time>
      </trkpt>
      <trkpt lat="42.813372" lon="0.654858">
        <ele>1630.0</ele>
        <time>2020-05-17T11:13:31Z</time>
      </trkpt>
      <trkpt lat="42.813376" lon="0.654967">
        <ele>1634.0</ele>
        <time>2020-05-17T11:13:57Z</time>
      </trkpt>
      <trkpt lat="42.813409" lon="0.655088">
        <ele>1638.8</ele>
        <time>2020-05-17T11:14:20Z</time>
      </trkpt>
      <trkpt lat="42.813421" lon="0.655206">
        <ele>1643.3</ele>
        <time>2020-05-17T11:14:47Z</time>
      </trkpt>
      <trkpt lat="42.813400" lon="0.655298">
        <ele>1647.5</ele>
        <time>2020-05-17T11:15:10Z</time>
      </trkpt>
      <trkpt lat="42.813404" lon="0.655399">
        <ele>1650.0</ele>
        <time>2020-05-17T11:15:32Z</time>
      </trkpt>
      <trkpt lat="42.813370" lon="0.655490">
        <ele>1656.3</ele>
        <time>2020-05-17T11:16:13Z</time>
      </trkpt>
      <trkpt lat="42.813407" lon="0.655595">
        <ele>1657.9</ele>
        <time>2020-05-17T11:16:39Z</time>
      </trkpt>
      <trkpt lat="42.813453" lon="0.655706">
        <ele>1661.2</ele>
        <time>2020-05-17T11:17:01Z</time>
      </trkpt>
      <trkpt lat="42.813444" lon="0.655828">
        <ele>1664.3</ele>
        <time>2020-05-17T11:17:22Z</time>
      </trkpt>
      <trkpt lat="42.813421" lon="0.655965">
        <ele>1667.7</ele>
        <time>2020-05-17T11:17:47Z</time>
      </trkpt>
      <trkpt lat="42.813457" lon="0.656096">
        <ele>1670.3</ele>
        <time>2020-05-17T11:18:04Z</time>
      </trkpt>
      <trkpt lat="42.813422" lon="0.656246">
        <ele>1672.7</ele>
        <time>2020-05-17T11:18:20Z</time>
      </trkpt>
      <trkpt lat="42.813379" lon="0.656413">
        <ele>1673.5</ele>
        <time>2020-05-17T11:18:32Z</time>
      </trkpt>
      <trkpt lat="42.813380" lon="0.656558">
        <ele>1675.1</ele>
        <time>2020-05-17T11:18:47Z</time>
      </trkpt>
      <trkpt lat="42.813353" lon="0.656698">
        <ele>1677.0</ele>
        <time>2020-05-17T11:19:04Z</time>
      </trkpt>
      <trkpt lat="42.813343" lon="0.656844">
        <ele>1678.7</ele>
        <time>2020-05-17T11:19:18Z</time>
      </trkpt>
      <trkpt lat="42.813336" lon="0.656968">
        <ele>1680.3</ele>
        <time>2020-05-17T11:19:33Z</time>
      </trkpt>
      <trkpt lat="42.813330" lon="0.657037">
        <ele>1683.4</ele>
        <time>2020-05-17T11:24:50Z</time>
      </trkpt>
      <trkpt lat="42.813400" lon="0.657141">
        <ele>1684.5</ele>
        <time>2020-05-17T11:25:14Z</time>
      </trkpt>
      <trkpt lat="42.813412" lon="0.657267">
        <ele>1685.4</ele>
        <time>2020-05-17T11:25:29Z</time>
      </trkpt>
      <trkpt lat="42.813449" lon="0.657392">
        <ele>1687.3</ele>
        <time>2020-05-17T11:25:44Z</time>
      </trkpt>
      <trkpt lat="42.813486" lon="0.657512">
        <ele>1689.0</ele>
        <time>2020-05-17T11:26:02Z</time>
      </trkpt>
      <trkpt lat="42.813516" lon="0.657632">
        <ele>1692.6</ele>
        <time>2020-05-17T11:26:24Z</time>
      </trkpt>
      <trkpt lat="42.813487" lon="0.657764">
        <ele>1696.0</ele>
        <time>2020-05-17T11:26:46Z</time>
      </trkpt>
      <trkpt lat="42.813490" lon="0.657896">
        <ele>1700.2</ele>
        <time>2020-05-17T11:27:13Z</time>
      </trkpt>
      <trkpt lat="42.813499" lon="0.658026">
        <ele>1702.9</ele>
        <time>2020-05-17T11:27:31Z</time>
      </trkpt>
      <trkpt lat="42.813497" lon="0.658151">
        <ele>1706.7</ele>
        <time>2020-05-17T11:27:55Z</time>
      </trkpt>
      <trkpt lat="42.813505" lon="0.658283">
        <ele>1711.3</ele>
        <time>2020-05-17T11:28:23Z</time>
      </trkpt>
      <trkpt lat="42.813486" lon="0.658400">
        <ele>1716.6</ele>
        <time>2020-05-17T11:28:51Z</time>
      </trkpt>
      <trkpt lat="42.813515" lon="0.658507">
        <ele>1721.6</ele>
        <time>2020-05-17T11:29:20Z</time>
      </trkpt>
      <trkpt lat="42.813484" lon="0.658595">
        <ele>1725.2</ele>
        <time>2020-05-17T11:29:55Z</time>
      </trkpt>
      <trkpt lat="42.813427" lon="0.658677">
        <ele>1730.5</ele>
        <time>2020-05-17T11:30:33Z</time>
      </trkpt>
      <trkpt lat="42.813455" lon="0.658779">
        <ele>1734.9</ele>
        <time>2020-05-17T11:31:08Z</time>
      </trkpt>
      <trkpt lat="42.813453" lon="0.658866">
        <ele>1739.4</ele>
        <time>2020-05-17T11:32:39Z</time>
      </trkpt>
      <trkpt lat="42.813460" lon="0.658978">
        <ele>1745.3</ele>
        <time>2020-05-17T11:33:17Z</time>
      </trkpt>
      <trkpt lat="42.813456" lon="0.659108">
        <ele>1750.3</ele>
        <time>2020-05-17T11:33:51Z</time>
      </trkpt>
      <trkpt lat="42.813475" lon="0.659226">
        <ele>1755.4</ele>
        <time>2020-05-17T11:34:24Z</time>
      </trkpt>
      <trkpt lat="42.813457" lon="0.659366">
        <ele>1760.7</ele>
        <time>2020-05-17T11:34:47Z</time>
      </trkpt>
      <trkpt lat="42.813446" lon="0.659503">
        <ele>1765.2</ele>
        <time>2020-05-17T11:35:07Z</time>
      </trkpt>
      <trkpt lat="42.813434" lon="0.659612">
        <ele>1768.6</ele>
        <time>2020-05-17T11:35:29Z</time>
      </trkpt>
      <trkpt lat="42.813415" lon="0.659725">
        <ele>1773.7</ele>
        <time>2020-05-17T11:35:56Z</time>
      </trkpt>
      <trkpt lat="42.813447" lon="0.659857">
        <ele>1777.7</ele>
        <time>2020-05-17T11:36:20Z</time>
      </trkpt>
      <trkpt lat="42.813459" lon="0.659984">
        <ele>1782.8</ele>
        <time>2020-05-17T11:36:55Z</time>
      </trkpt>
      <trkpt lat="42.813448" lon="0.660122">
        <ele>1788.0</ele>
        <time>2020-05-17T11:37:16Z</time>
      </trkpt>
      <trkpt lat="42.813454" lon="0.660252">
        <ele>1794.0</ele>
        <time>2020-05-17T11:37:37Z</time>
      </trkpt>
      <trkpt lat="42.813444" lon="0.660383">
        <ele>1798.8</ele>
        <time>2020-05-17T11:38:01Z</time>
      </trkpt>
      <trkpt lat="42.813474" lon="0.660486">
        <ele>1803.7</ele>
        <time>2020-05-17T11:38:23Z</time>
      </trkpt>
      <trkpt lat="42.813426" lon="0.660578">
        <ele>1809.1</ele>
        <time>2020-05-17T11:38:52Z</time>
      </trkpt>
      <trkpt lat="42.813416" lon="0.660733">
        <ele>1813.9</ele>
        <time>2020-05-17T11:39:18Z</time>
      </trkpt>
      <trkpt lat="42.813456" lon="0.660851">
        <ele>1818.3</ele>
        <time>2020-05-17T11:39:42Z</time>
      </trkpt>
      <trkpt lat="42.813476" lon="0.660990">
        <ele>1823.2</ele>
        <time>2020-05-17T11:40:07Z</time>
      </trkpt>
      <trkpt lat="42.813499" lon="0.661123">
        <ele>1829.0</ele>
        <time>2020-05-17T11:40:35Z</time>
      </trkpt>
      <trkpt lat="42.813513" lon="0.661247">
        <ele>1832.5</ele>
        <time>2020-05-17T11:40:58Z</time>
      </trkpt>
      <trkpt lat="42.813522" lon="0.661367">
        <ele>1838.5</ele>
        <time>2020-05-17T11:41:25Z</time>
      </trkpt>
      <trkpt lat="42.813557" lon="0.661524">
        <ele>1843.8</ele>
        <time>2020-05-17T11:41:44Z</time>
      </trkpt>
      <trkpt lat="42.813585" lon="0.661648">
        <ele>1848.0</ele>
        <time>2020-05-17T11:42:05Z</time>
      </trkpt>
      <trkpt lat="42.813631" lon="0.661759">
        <ele>1851.6</ele>
        <time>2020-05-17T11:42:22Z</time>
      </trkpt>
      <trkpt lat="42.813651" lon="0.661903">
        <ele>1855.2</ele>
        <time>2020-05-17T11:42:38Z</time>
      </trkpt>
      <trkpt lat="42.813666" lon="0.662036">
        <ele>1858.5</ele>
        <time>2020-05-17T11:43:14Z</time>
      </trkpt>
      <trkpt lat="42.813667" lon="0.662172">
        <ele>1862.2</ele>
        <time>2020-05-17T11:43:35Z</time>
      </trkpt>
      <trkpt lat="42.813676" lon="0.662330">
        <ele>1863.7</ele>
        <time>2020-05-17T11:43:50Z</time>
      </trkpt>
      <trkpt lat="42.813750" lon="0.662442">
        <ele>1868.3</ele>
        <time>2020-05-17T11:44:14Z</time>
      </trkpt>
      <trkpt lat="42.813829" lon="0.662527">
        <ele>1869.8</ele>
        <time>2020-05-17T11:44:32Z</time>
      </trkpt>
      <trkpt lat="42.813861" lon="0.662635">
        <ele>1873.5</ele>
        <time>2020-05-17T11:45:01Z</time>
      </trkpt>
      <trkpt lat="42.813859" lon="0.662744">
        <ele>1878.6</ele>
        <time>2020-05-17T11:45:27Z</time>
      </trkpt>
      <trkpt lat="42.813758" lon="0.662789">
        <ele>1882.1</ele>
        <time>2020-05-17T11:45:48Z</time>
      </trkpt>
      <trkpt lat="42.813729" lon="0.662867">
        <ele>1886.6</ele>
        <time>2020-05-17T11:46:11Z</time>
      </trkpt>
      <trkpt lat="42.813749" lon="0.662978">
        <ele>1890.1</ele>
        <time>2020-05-17T11:46:31Z</time>
      </trkpt>
      <trkpt lat="42.813795" lon="0.663086">
        <ele>1893.7</ele>
        <time>2020-05-17T11:46:54Z</time>
      </trkpt>
      <trkpt lat="42.813839" lon="0.663194">
        <ele>1898.0</ele>
        <time>2020-05-17T11:47:15Z</time>
      </trkpt>
      <trkpt lat="42.813911" lon="0.663270">
        <ele>1901.8</ele>
        <time>2020-05-17T11:47:33Z</time>
      </trkpt>
      <trkpt lat="42.814005" lon="0.663325">
        <ele>1904.4</ele>
        <time>2020-05-17T11:47:53Z</time>
      </trkpt>
      <trkpt lat="42.814092" lon="0.663400">
        <ele>1907.5</ele>
        <time>2020-05-17T11:48:15Z</time>
      </trkpt>
      <trkpt lat="42.814185" lon="0.663465">
        <ele>1910.8</ele>
        <time>2020-05-17T11:48:35Z</time>
      </trkpt>
      <trkpt lat="42.814267" lon="0.663536">
        <ele>1911.8</ele>
        <time>2020-05-17T11:48:56Z</time>
      </trkpt>
      <trkpt lat="42.814337" lon="0.663639">
        <ele>1916.1</ele>
        <time>2020-05-17T11:49:18Z</time>
      </trkpt>
      <trkpt lat="42.814417" lon="0.663704">
        <ele>1918.6</ele>
        <time>2020-05-17T11:49:38Z</time>
      </trkpt>
      <trkpt lat="42.814505" lon="0.663755">
        <ele>1920.2</ele>
        <time>2020-05-17T11:49:53Z</time>
      </trkpt>
      <trkpt lat="42.814598" lon="0.663779">
        <ele>1920.2</ele>
        <time>2020-05-17T11:50:08Z</time>
      </trkpt>
      <trkpt lat="42.814704" lon="0.663793">
        <ele>1917.9</ele>
        <time>2020-05-17T11:50:25Z</time>
      </trkpt>
      <trkpt lat="42.814814" lon="0.663816">
        <ele>1918.0</ele>
        <time>2020-05-17T11:50:40Z</time>
      </trkpt>
      <trkpt lat="42.814891" lon="0.663747">
        <ele>1912.7</ele>
        <time>2020-05-17T11:51:02Z</time>
      </trkpt>
      <trkpt lat="42.814988" lon="0.663752">
        <ele>1909.2</ele>
        <time>2020-05-17T11:51:23Z</time>
      </trkpt>
      <trkpt lat="42.815050" lon="0.663867">
        <ele>1911.7</ele>
        <time>2020-05-17T11:51:44Z</time>
      </trkpt>
      <trkpt lat="42.815038" lon="0.663933">
        <ele>1916.1</ele>
        <time>2020-05-17T11:52:06Z</time>
      </trkpt>
      <trkpt lat="42.814991" lon="0.664033">
        <ele>1919.3</ele>
        <time>2020-05-17T11:52:30Z</time>
      </trkpt>
      <trkpt lat="42.815030" lon="0.664126">
        <ele>1923.7</ele>
        <time>2020-05-17T11:52:56Z</time>
      </trkpt>
      <trkpt lat="42.815125" lon="0.664155">
        <ele>1925.2</ele>
        <time>2020-05-17T11:53:33Z</time>
      </trkpt>
      <trkpt lat="42.815205" lon="0.664233">
        <ele>1928.0</ele>
        <time>2020-05-17T11:53:58Z</time>
      </trkpt>
      <trkpt lat="42.815233" lon="0.664337">
        <ele>1933.5</ele>
        <time>2020-05-17T11:54:18Z</time>
      </trkpt>
      <trkpt lat="42.815292" lon="0.664436">
        <ele>1936.8</ele>
        <time>2020-05-17T11:54:37Z</time>
      </trkpt>
      <trkpt lat="42.815325" lon="0.664508">
        <ele>1940.8</ele>
        <time>2020-05-17T11:55:00Z</time>
      </trkpt>
      <trkpt lat="42.815288" lon="0.664599">
        <ele>1946.3</ele>
        <time>2020-05-17T11:55:27Z</time>
      </trkpt>
      <trkpt lat="42.815286" lon="0.664710">
        <ele>1950.9</ele>
        <time>2020-05-17T11:55:56Z</time>
      </trkpt>
      <trkpt lat="42.815315" lon="0.664807">
        <ele>1956.5</ele>
        <time>2020-05-17T11:56:35Z</time>
      </trkpt>
      <trkpt lat="42.815380" lon="0.664876">
        <ele>1962.5</ele>
        <time>2020-05-17T11:57:14Z</time>
      </trkpt>
      <trkpt lat="42.815390" lon="0.664907">
        <ele>1966.4</ele>
        <time>2020-05-17T12:06:53Z</time>
      </trkpt>
      <trkpt lat="42.815465" lon="0.664980">
        <ele>1966.5</ele>
        <time>2020-05-17T12:07:09Z</time>
      </trkpt>
      <trkpt lat="42.815461" lon="0.664975">
        <ele>1966.6</ele>
        <time>2020-05-17T12:07:35Z</time>
      </trkpt>
      <trkpt lat="42.815529" lon="0.665023">
        <ele>1965.7</ele>
        <time>2020-05-17T12:07:57Z</time>
      </trkpt>
      <trkpt lat="42.815626" lon="0.665087">
        <ele>1963.5</ele>
        <time>2020-05-17T12:08:06Z</time>
      </trkpt>
      <trkpt lat="42.815718" lon="0.665154">
        <ele>1960.9</ele>
        <time>2020-05-17T12:08:15Z</time>
      </trkpt>
      <trkpt lat="42.815800" lon="0.665226">
        <ele>1957.2</ele>
        <time>2020-05-17T12:08:24Z</time>
      </trkpt>
      <trkpt lat="42.815873" lon="0.665311">
        <ele>1952.8</ele>
        <time>2020-05-17T12:08:34Z</time>
      </trkpt>
      <trkpt lat="42.815955" lon="0.665397">
        <ele>1947.0</ele>
        <time>2020-05-17T12:08:48Z</time>
      </trkpt>
      <trkpt lat="42.816037" lon="0.665480">
        <ele>1943.0</ele>
        <time>2020-05-17T12:08:58Z</time>
      </trkpt>
      <trkpt lat="42.816107" lon="0.665563">
        <ele>1939.1</ele>
        <time>2020-05-17T12:09:09Z</time>
      </trkpt>
      <trkpt lat="42.816079" lon="0.665537">
        <ele>1938.6</ele>
        <time>2020-05-17T12:09:55Z</time>
      </trkpt>
      <trkpt lat="42.816129" lon="0.665522">
        <ele>1941.0</ele>
        <time>2020-05-17T12:10:12Z</time>
      </trkpt>
      <trkpt lat="42.816214" lon="0.665605">
        <ele>1935.5</ele>
        <time>2020-05-17T12:10:20Z</time>
      </trkpt>
      <trkpt lat="42.816293" lon="0.665690">
        <ele>1932.2</ele>
        <time>2020-05-17T12:10:27Z</time>
      </trkpt>
      <trkpt lat="42.816386" lon="0.665734">
        <ele>1930.4</ele>
        <time>2020-05-17T12:10:34Z</time>
      </trkpt>
      <trkpt lat="42.816483" lon="0.665766">
        <ele>1928.2</ele>
        <time>2020-05-17T12:10:42Z</time>
      </trkpt>
      <trkpt lat="42.816592" lon="0.665807">
        <ele>1925.7</ele>
        <time>2020-05-17T12:10:51Z</time>
      </trkpt>
      <trkpt lat="42.816686" lon="0.665860">
        <ele>1924.2</ele>
        <time>2020-05-17T12:11:03Z</time>
      </trkpt>
      <trkpt lat="42.816789" lon="0.665892">
        <ele>1921.9</ele>
        <time>2020-05-17T12:11:11Z</time>
      </trkpt>
      <trkpt lat="42.816880" lon="0.665927">
        <ele>1920.9</ele>
        <time>2020-05-17T12:11:19Z</time>
      </trkpt>
      <trkpt lat="42.816976" lon="0.665900">
        <ele>1918.3</ele>
        <time>2020-05-17T12:11:28Z</time>
      </trkpt>
      <trkpt lat="42.817068" lon="0.665922">
        <ele>1916.5</ele>
        <time>2020-05-17T12:11:38Z</time>
      </trkpt>
      <trkpt lat="42.817165" lon="0.665956">
        <ele>1914.4</ele>
        <time>2020-05-17T12:11:46Z</time>
      </trkpt>
      <trkpt lat="42.817263" lon="0.665990">
        <ele>1912.8</ele>
        <time>2020-05-17T12:11:55Z</time>
      </trkpt>
      <trkpt lat="42.817380" lon="0.666008">
        <ele>1912.9</ele>
        <time>2020-05-17T12:12:13Z</time>
      </trkpt>
      <trkpt lat="42.817475" lon="0.666068">
        <ele>1912.9</ele>
        <time>2020-05-17T12:12:22Z</time>
      </trkpt>
      <trkpt lat="42.817574" lon="0.666085">
        <ele>1912.9</ele>
        <time>2020-05-17T12:12:30Z</time>
      </trkpt>
      <trkpt lat="42.817678" lon="0.666120">
        <ele>1912.9</ele>
        <time>2020-05-17T12:12:41Z</time>
      </trkpt>
      <trkpt lat="42.817780" lon="0.666155">
        <ele>1913.0</ele>
        <time>2020-05-17T12:12:49Z</time>
      </trkpt>
      <trkpt lat="42.817878" lon="0.666184">
        <ele>1912.9</ele>
        <time>2020-05-17T12:12:57Z</time>
      </trkpt>
      <trkpt lat="42.817980" lon="0.666206">
        <ele>1912.1</ele>
        <time>2020-05-17T12:13:05Z</time>
      </trkpt>
      <trkpt lat="42.818081" lon="0.666195">
        <ele>1911.2</ele>
        <time>2020-05-17T12:13:13Z</time>
      </trkpt>
      <trkpt lat="42.818180" lon="0.666215">
        <ele>1911.2</ele>
        <time>2020-05-17T12:13:22Z</time>
      </trkpt>
      <trkpt lat="42.818282" lon="0.666249">
        <ele>1911.2</ele>
        <time>2020-05-17T12:13:30Z</time>
      </trkpt>
      <trkpt lat="42.818381" lon="0.666305">
        <ele>1910.4</ele>
        <time>2020-05-17T12:13:38Z</time>
      </trkpt>
      <trkpt lat="42.818473" lon="0.666362">
        <ele>1909.6</ele>
        <time>2020-05-17T12:13:46Z</time>
      </trkpt>
      <trkpt lat="42.818567" lon="0.666421">
        <ele>1908.7</ele>
        <time>2020-05-17T12:13:54Z</time>
      </trkpt>
      <trkpt lat="42.818646" lon="0.666489">
        <ele>1908.7</ele>
        <time>2020-05-17T12:14:02Z</time>
      </trkpt>
      <trkpt lat="42.818719" lon="0.666575">
        <ele>1907.1</ele>
        <time>2020-05-17T12:14:10Z</time>
      </trkpt>
      <trkpt lat="42.818804" lon="0.666659">
        <ele>1906.4</ele>
        <time>2020-05-17T12:14:18Z</time>
      </trkpt>
      <trkpt lat="42.818895" lon="0.666719">
        <ele>1905.6</ele>
        <time>2020-05-17T12:14:26Z</time>
      </trkpt>
      <trkpt lat="42.818899" lon="0.666780">
        <ele>1905.2</ele>
        <time>2020-05-17T12:17:00Z</time>
      </trkpt>
      <trkpt lat="42.818898" lon="0.666840">
        <ele>1912.0</ele>
        <time>2020-05-17T13:06:12Z</time>
      </trkpt>
      <trkpt lat="42.818993" lon="0.666855">
        <ele>1908.9</ele>
        <time>2020-05-17T13:06:31Z</time>
      </trkpt>
      <trkpt lat="42.819087" lon="0.666877">
        <ele>1906.7</ele>
        <time>2020-05-17T13:08:25Z</time>
      </trkpt>
      <trkpt lat="42.819168" lon="0.666970">
        <ele>1905.9</ele>
        <time>2020-05-17T13:08:36Z</time>
      </trkpt>
      <trkpt lat="42.819247" lon="0.667039">
        <ele>1905.9</ele>
        <time>2020-05-17T13:08:45Z</time>
      </trkpt>
      <trkpt lat="42.819333" lon="0.667107">
        <ele>1904.2</ele>
        <time>2020-05-17T13:08:55Z</time>
      </trkpt>
      <trkpt lat="42.819423" lon="0.667158">
        <ele>1902.4</ele>
        <time>2020-05-17T13:09:05Z</time>
      </trkpt>
      <trkpt lat="42.819528" lon="0.667181">
        <ele>1900.8</ele>
        <time>2020-05-17T13:09:15Z</time>
      </trkpt>
      <trkpt lat="42.819621" lon="0.667226">
        <ele>1899.3</ele>
        <time>2020-05-17T13:09:25Z</time>
      </trkpt>
      <trkpt lat="42.819713" lon="0.667271">
        <ele>1898.3</ele>
        <time>2020-05-17T13:09:35Z</time>
      </trkpt>
      <trkpt lat="42.819790" lon="0.667350">
        <ele>1896.7</ele>
        <time>2020-05-17T13:09:46Z</time>
      </trkpt>
      <trkpt lat="42.819887" lon="0.667389">
        <ele>1895.9</ele>
        <time>2020-05-17T13:09:56Z</time>
      </trkpt>
      <trkpt lat="42.819976" lon="0.667422">
        <ele>1894.2</ele>
        <time>2020-05-17T13:10:07Z</time>
      </trkpt>
      <trkpt lat="42.820053" lon="0.667491">
        <ele>1894.2</ele>
        <time>2020-05-17T13:10:19Z</time>
      </trkpt>
      <trkpt lat="42.820127" lon="0.667588">
        <ele>1894.2</ele>
        <time>2020-05-17T13:10:31Z</time>
      </trkpt>
      <trkpt lat="42.820192" lon="0.667704">
        <ele>1894.2</ele>
        <time>2020-05-17T13:10:42Z</time>
      </trkpt>
      <trkpt lat="42.820273" lon="0.667779">
        <ele>1894.1</ele>
        <time>2020-05-17T13:10:50Z</time>
      </trkpt>
      <trkpt lat="42.820346" lon="0.667881">
        <ele>1894.1</ele>
        <time>2020-05-17T13:11:01Z</time>
      </trkpt>
      <trkpt lat="42.820407" lon="0.667981">
        <ele>1894.0</ele>
        <time>2020-05-17T13:11:12Z</time>
      </trkpt>
      <trkpt lat="42.820450" lon="0.668097">
        <ele>1894.1</ele>
        <time>2020-05-17T13:11:32Z</time>
      </trkpt>
      <trkpt lat="42.820549" lon="0.668148">
        <ele>1891.2</ele>
        <time>2020-05-17T13:11:53Z</time>
      </trkpt>
      <trkpt lat="42.820568" lon="0.668284">
        <ele>1890.3</ele>
        <time>2020-05-17T13:12:03Z</time>
      </trkpt>
      <trkpt lat="42.820575" lon="0.668419">
        <ele>1892.9</ele>
        <time>2020-05-17T13:12:28Z</time>
      </trkpt>
      <trkpt lat="42.820595" lon="0.668558">
        <ele>1895.0</ele>
        <time>2020-05-17T13:12:44Z</time>
      </trkpt>
      <trkpt lat="42.820612" lon="0.668687">
        <ele>1897.5</ele>
        <time>2020-05-17T13:12:58Z</time>
      </trkpt>
      <trkpt lat="42.820618" lon="0.668819">
        <ele>1899.9</ele>
        <time>2020-05-17T13:13:13Z</time>
      </trkpt>
      <trkpt lat="42.820637" lon="0.668929">
        <ele>1901.6</ele>
        <time>2020-05-17T13:13:26Z</time>
      </trkpt>
      <trkpt lat="42.820694" lon="0.669033">
        <ele>1903.3</ele>
        <time>2020-05-17T13:13:48Z</time>
      </trkpt>
      <trkpt lat="42.820753" lon="0.669129">
        <ele>1903.3</ele>
        <time>2020-05-17T13:14:00Z</time>
      </trkpt>
      <trkpt lat="42.820828" lon="0.669199">
        <ele>1905.0</ele>
        <time>2020-05-17T13:14:16Z</time>
      </trkpt>
      <trkpt lat="42.820903" lon="0.669288">
        <ele>1906.7</ele>
        <time>2020-05-17T13:14:30Z</time>
      </trkpt>
      <trkpt lat="42.820961" lon="0.669395">
        <ele>1909.3</ele>
        <time>2020-05-17T13:14:43Z</time>
      </trkpt>
      <trkpt lat="42.821027" lon="0.669492">
        <ele>1910.3</ele>
        <time>2020-05-17T13:14:56Z</time>
      </trkpt>
      <trkpt lat="42.821098" lon="0.669574">
        <ele>1912.7</ele>
        <time>2020-05-17T13:15:10Z</time>
      </trkpt>
      <trkpt lat="42.821156" lon="0.669655">
        <ele>1913.6</ele>
        <time>2020-05-17T13:15:38Z</time>
      </trkpt>
      <trkpt lat="42.821224" lon="0.669735">
        <ele>1914.3</ele>
        <time>2020-05-17T13:16:55Z</time>
      </trkpt>
      <trkpt lat="42.821306" lon="0.669824">
        <ele>1911.8</ele>
        <time>2020-05-17T13:17:08Z</time>
      </trkpt>
      <trkpt lat="42.821388" lon="0.669908">
        <ele>1911.9</ele>
        <time>2020-05-17T13:17:19Z</time>
      </trkpt>
      <trkpt lat="42.821456" lon="0.670003">
        <ele>1912.0</ele>
        <time>2020-05-17T13:17:30Z</time>
      </trkpt>
      <trkpt lat="42.821517" lon="0.670106">
        <ele>1914.4</ele>
        <time>2020-05-17T13:17:42Z</time>
      </trkpt>
      <trkpt lat="42.821570" lon="0.670215">
        <ele>1916.3</ele>
        <time>2020-05-17T13:17:51Z</time>
      </trkpt>
      <trkpt lat="42.821612" lon="0.670326">
        <ele>1917.1</ele>
        <time>2020-05-17T13:18:01Z</time>
      </trkpt>
      <trkpt lat="42.821656" lon="0.670424">
        <ele>1919.5</ele>
        <time>2020-05-17T13:18:37Z</time>
      </trkpt>
      <trkpt lat="42.821694" lon="0.670490">
        <ele>1919.6</ele>
        <time>2020-05-17T13:20:23Z</time>
      </trkpt>
      <trkpt lat="42.821767" lon="0.670447">
        <ele>1914.3</ele>
        <time>2020-05-17T13:20:40Z</time>
      </trkpt>
      <trkpt lat="42.821868" lon="0.670441">
        <ele>1909.5</ele>
        <time>2020-05-17T13:20:54Z</time>
      </trkpt>
      <trkpt lat="42.821944" lon="0.670353">
        <ele>1907.1</ele>
        <time>2020-05-17T13:21:12Z</time>
      </trkpt>
      <trkpt lat="42.822026" lon="0.670293">
        <ele>1905.5</ele>
        <time>2020-05-17T13:21:22Z</time>
      </trkpt>
      <trkpt lat="42.822127" lon="0.670293">
        <ele>1904.7</ele>
        <time>2020-05-17T13:21:33Z</time>
      </trkpt>
      <trkpt lat="42.822232" lon="0.670301">
        <ele>1904.8</ele>
        <time>2020-05-17T13:21:45Z</time>
      </trkpt>
      <trkpt lat="42.822346" lon="0.670298">
        <ele>1904.8</ele>
        <time>2020-05-17T13:21:57Z</time>
      </trkpt>
      <trkpt lat="42.822449" lon="0.670310">
        <ele>1904.8</ele>
        <time>2020-05-17T13:22:07Z</time>
      </trkpt>
      <trkpt lat="42.822554" lon="0.670280">
        <ele>1903.9</ele>
        <time>2020-05-17T13:22:17Z</time>
      </trkpt>
      <trkpt lat="42.822639" lon="0.670207">
        <ele>1900.5</ele>
        <time>2020-05-17T13:22:28Z</time>
      </trkpt>
      <trkpt lat="42.822715" lon="0.670137">
        <ele>1898.8</ele>
        <time>2020-05-17T13:22:38Z</time>
      </trkpt>
      <trkpt lat="42.822817" lon="0.670110">
        <ele>1898.8</ele>
        <time>2020-05-17T13:22:47Z</time>
      </trkpt>
      <trkpt lat="42.822917" lon="0.670090">
        <ele>1898.9</ele>
        <time>2020-05-17T13:22:56Z</time>
      </trkpt>
      <trkpt lat="42.823018" lon="0.670036">
        <ele>1899.0</ele>
        <time>2020-05-17T13:23:05Z</time>
      </trkpt>
      <trkpt lat="42.823114" lon="0.669980">
        <ele>1903.1</ele>
        <time>2020-05-17T13:23:19Z</time>
      </trkpt>
      <trkpt lat="42.823204" lon="0.669950">
        <ele>1907.4</ele>
        <time>2020-05-17T13:23:38Z</time>
      </trkpt>
      <trkpt lat="42.823293" lon="0.669925">
        <ele>1910.8</ele>
        <time>2020-05-17T13:23:59Z</time>
      </trkpt>
      <trkpt lat="42.823401" lon="0.669898">
        <ele>1916.5</ele>
        <time>2020-05-17T13:24:28Z</time>
      </trkpt>
      <trkpt lat="42.823499" lon="0.669878">
        <ele>1919.1</ele>
        <time>2020-05-17T13:24:44Z</time>
      </trkpt>
      <trkpt lat="42.823584" lon="0.669888">
        <ele>1922.6</ele>
        <time>2020-05-17T13:25:01Z</time>
      </trkpt>
      <trkpt lat="42.823646" lon="0.669963">
        <ele>1925.0</ele>
        <time>2020-05-17T13:25:23Z</time>
      </trkpt>
      <trkpt lat="42.823729" lon="0.669943">
        <ele>1928.7</ele>
        <time>2020-05-17T13:25:40Z</time>
      </trkpt>
      <trkpt lat="42.823822" lon="0.669946">
        <ele>1933.3</ele>
        <time>2020-05-17T13:25:55Z</time>
      </trkpt>
      <trkpt lat="42.823907" lon="0.669919">
        <ele>1936.6</ele>
        <time>2020-05-17T13:26:10Z</time>
      </trkpt>
      <trkpt lat="42.823932" lon="0.669827">
        <ele>1938.4</ele>
        <time>2020-05-17T13:28:05Z</time>
      </trkpt>
      <trkpt lat="42.824023" lon="0.669775">
        <ele>1938.4</ele>
        <time>2020-05-17T13:28:16Z</time>
      </trkpt>
      <trkpt lat="42.824122" lon="0.669733">
        <ele>1935.2</ele>
        <time>2020-05-17T13:28:28Z</time>
      </trkpt>
      <trkpt lat="42.824218" lon="0.669667">
        <ele>1934.4</ele>
        <time>2020-05-17T13:28:40Z</time>
      </trkpt>
      <trkpt lat="42.824314" lon="0.669640">
        <ele>1932.7</ele>
        <time>2020-05-17T13:28:50Z</time>
      </trkpt>
      <trkpt lat="42.824411" lon="0.669622">
        <ele>1930.9</ele>
        <time>2020-05-17T13:29:00Z</time>
      </trkpt>
      <trkpt lat="42.824510" lon="0.669643">
        <ele>1928.5</ele>
        <time>2020-05-17T13:29:10Z</time>
      </trkpt>
      <trkpt lat="42.824595" lon="0.669596">
        <ele>1926.8</ele>
        <time>2020-05-17T13:29:21Z</time>
      </trkpt>
      <trkpt lat="42.824680" lon="0.669530">
        <ele>1924.3</ele>
        <time>2020-05-17T13:29:32Z</time>
      </trkpt>
      <trkpt lat="42.824747" lon="0.669431">
        <ele>1923.5</ele>
        <time>2020-05-17T13:29:43Z</time>
      </trkpt>
      <trkpt lat="42.824807" lon="0.669337">
        <ele>1922.7</ele>
        <time>2020-05-17T13:29:53Z</time>
      </trkpt>
      <trkpt lat="42.824866" lon="0.669237">
        <ele>1920.7</ele>
        <time>2020-05-17T13:30:02Z</time>
      </trkpt>
      <trkpt lat="42.824909" lon="0.669116">
        <ele>1919.1</ele>
        <time>2020-05-17T13:30:12Z</time>
      </trkpt>
      <trkpt lat="42.824962" lon="0.669009">
        <ele>1916.5</ele>
        <time>2020-05-17T13:30:22Z</time>
      </trkpt>
      <trkpt lat="42.824982" lon="0.668929">
        <ele>1915.8</ele>
        <time>2020-05-17T13:31:03Z</time>
      </trkpt>
      <trkpt lat="42.825014" lon="0.668810">
        <ele>1913.9</ele>
        <time>2020-05-17T13:31:14Z</time>
      </trkpt>
      <trkpt lat="42.825068" lon="0.668705">
        <ele>1913.0</ele>
        <time>2020-05-17T13:31:24Z</time>
      </trkpt>
      <trkpt lat="42.825110" lon="0.668577">
        <ele>1912.2</ele>
        <time>2020-05-17T13:31:34Z</time>
      </trkpt>
      <trkpt lat="42.825139" lon="0.668451">
        <ele>1911.3</ele>
        <time>2020-05-17T13:31:43Z</time>
      </trkpt>
      <trkpt lat="42.825186" lon="0.668330">
        <ele>1911.4</ele>
        <time>2020-05-17T13:31:53Z</time>
      </trkpt>
      <trkpt lat="42.825266" lon="0.668256">
        <ele>1911.4</ele>
        <time>2020-05-17T13:32:04Z</time>
      </trkpt>
      <trkpt lat="42.825340" lon="0.668172">
        <ele>1911.4</ele>
        <time>2020-05-17T13:32:14Z</time>
      </trkpt>
      <trkpt lat="42.825414" lon="0.668095">
        <ele>1913.9</ele>
        <time>2020-05-17T13:32:24Z</time>
      </trkpt>
      <trkpt lat="42.825483" lon="0.667996">
        <ele>1917.5</ele>
        <time>2020-05-17T13:32:37Z</time>
      </trkpt>
      <trkpt lat="42.825561" lon="0.667906">
        <ele>1921.1</ele>
        <time>2020-05-17T13:32:53Z</time>
      </trkpt>
      <trkpt lat="42.825615" lon="0.667813">
        <ele>1924.1</ele>
        <time>2020-05-17T13:33:07Z</time>
      </trkpt>
      <trkpt lat="42.825685" lon="0.667729">
        <ele>1925.8</ele>
        <time>2020-05-17T13:33:22Z</time>
      </trkpt>
      <trkpt lat="42.825721" lon="0.667617">
        <ele>1929.4</ele>
        <time>2020-05-17T13:33:40Z</time>
      </trkpt>
      <trkpt lat="42.825800" lon="0.667542">
        <ele>1932.0</ele>
        <time>2020-05-17T13:33:56Z</time>
      </trkpt>
      <trkpt lat="42.825889" lon="0.667496">
        <ele>1933.8</ele>
        <time>2020-05-17T13:34:11Z</time>
      </trkpt>
      <trkpt lat="42.825971" lon="0.667467">
        <ele>1936.4</ele>
        <time>2020-05-17T13:34:27Z</time>
      </trkpt>
      <trkpt lat="42.826021" lon="0.667395">
        <ele>1940.3</ele>
        <time>2020-05-17T13:34:46Z</time>
      </trkpt>
      <trkpt lat="42.826014" lon="0.667308">
        <ele>1940.4</ele>
        <time>2020-05-17T13:35:54Z</time>
      </trkpt>
      <trkpt lat="42.826013" lon="0.667175">
        <ele>1937.2</ele>
        <time>2020-05-17T13:36:07Z</time>
      </trkpt>
      <trkpt lat="42.826014" lon="0.667054">
        <ele>1933.7</ele>
        <time>2020-05-17T13:36:28Z</time>
      </trkpt>
      <trkpt lat="42.826047" lon="0.666941">
        <ele>1928.9</ele>
        <time>2020-05-17T13:36:44Z</time>
      </trkpt>
      <trkpt lat="42.826093" lon="0.666832">
        <ele>1924.0</ele>
        <time>2020-05-17T13:36:56Z</time>
      </trkpt>
      <trkpt lat="42.826151" lon="0.666730">
        <ele>1919.6</ele>
        <time>2020-05-17T13:37:06Z</time>
      </trkpt>
      <trkpt lat="42.826201" lon="0.666616">
        <ele>1916.8</ele>
        <time>2020-05-17T13:37:16Z</time>
      </trkpt>
      <trkpt lat="42.826252" lon="0.666494">
        <ele>1914.3</ele>
        <time>2020-05-17T13:37:26Z</time>
      </trkpt>
      <trkpt lat="42.826299" lon="0.666370">
        <ele>1911.7</ele>
        <time>2020-05-17T13:37:35Z</time>
      </trkpt>
      <trkpt lat="42.826335" lon="0.666243">
        <ele>1910.1</ele>
        <time>2020-05-17T13:37:45Z</time>
      </trkpt>
      <trkpt lat="42.826393" lon="0.666126">
        <ele>1908.4</ele>
        <time>2020-05-17T13:37:54Z</time>
      </trkpt>
      <trkpt lat="42.826468" lon="0.666035">
        <ele>1908.4</ele>
        <time>2020-05-17T13:38:02Z</time>
      </trkpt>
      <trkpt lat="42.826547" lon="0.665954">
        <ele>1908.4</ele>
        <time>2020-05-17T13:38:12Z</time>
      </trkpt>
      <trkpt lat="42.826626" lon="0.665884">
        <ele>1908.4</ele>
        <time>2020-05-17T13:38:25Z</time>
      </trkpt>
      <trkpt lat="42.826710" lon="0.665810">
        <ele>1908.4</ele>
        <time>2020-05-17T13:38:36Z</time>
      </trkpt>
      <trkpt lat="42.826793" lon="0.665739">
        <ele>1908.4</ele>
        <time>2020-05-17T13:38:46Z</time>
      </trkpt>
      <trkpt lat="42.826871" lon="0.665656">
        <ele>1911.7</ele>
        <time>2020-05-17T13:38:57Z</time>
      </trkpt>
      <trkpt lat="42.826934" lon="0.665580">
        <ele>1913.3</ele>
        <time>2020-05-17T13:39:11Z</time>
      </trkpt>
      <trkpt lat="42.827012" lon="0.665493">
        <ele>1915.7</ele>
        <time>2020-05-17T13:39:27Z</time>
      </trkpt>
      <trkpt lat="42.827072" lon="0.665401">
        <ele>1920.2</ele>
        <time>2020-05-17T13:39:45Z</time>
      </trkpt>
      <trkpt lat="42.827156" lon="0.665324">
        <ele>1923.0</ele>
        <time>2020-05-17T13:40:02Z</time>
      </trkpt>
      <trkpt lat="42.827222" lon="0.665225">
        <ele>1925.7</ele>
        <time>2020-05-17T13:40:16Z</time>
      </trkpt>
      <trkpt lat="42.827286" lon="0.665123">
        <ele>1926.7</ele>
        <time>2020-05-17T13:40:29Z</time>
      </trkpt>
      <trkpt lat="42.827347" lon="0.665028">
        <ele>1929.1</ele>
        <time>2020-05-17T13:40:40Z</time>
      </trkpt>
      <trkpt lat="42.827408" lon="0.664929">
        <ele>1929.1</ele>
        <time>2020-05-17T13:40:51Z</time>
      </trkpt>
      <trkpt lat="42.827473" lon="0.664830">
        <ele>1929.8</ele>
        <time>2020-05-17T13:41:03Z</time>
      </trkpt>
      <trkpt lat="42.827538" lon="0.664723">
        <ele>1929.8</ele>
        <time>2020-05-17T13:41:15Z</time>
      </trkpt>
      <trkpt lat="42.827593" lon="0.664617">
        <ele>1930.6</ele>
        <time>2020-05-17T13:41:27Z</time>
      </trkpt>
      <trkpt lat="42.827653" lon="0.664513">
        <ele>1930.6</ele>
        <time>2020-05-17T13:41:38Z</time>
      </trkpt>
      <trkpt lat="42.827693" lon="0.664393">
        <ele>1931.5</ele>
        <time>2020-05-17T13:41:48Z</time>
      </trkpt>
      <trkpt lat="42.827733" lon="0.664281">
        <ele>1931.5</ele>
        <time>2020-05-17T13:41:58Z</time>
      </trkpt>
      <trkpt lat="42.827785" lon="0.664173">
        <ele>1932.3</ele>
        <time>2020-05-17T13:42:09Z</time>
      </trkpt>
      <trkpt lat="42.827840" lon="0.664079">
        <ele>1932.3</ele>
        <time>2020-05-17T13:42:19Z</time>
      </trkpt>
      <trkpt lat="42.827899" lon="0.663965">
        <ele>1932.3</ele>
        <time>2020-05-17T13:42:32Z</time>
      </trkpt>
      <trkpt lat="42.827962" lon="0.663862">
        <ele>1934.1</ele>
        <time>2020-05-17T13:42:44Z</time>
      </trkpt>
      <trkpt lat="42.828007" lon="0.663747">
        <ele>1936.7</ele>
        <time>2020-05-17T13:42:58Z</time>
      </trkpt>
      <trkpt lat="42.828040" lon="0.663633">
        <ele>1938.4</ele>
        <time>2020-05-17T13:43:13Z</time>
      </trkpt>
      <trkpt lat="42.828069" lon="0.663508">
        <ele>1940.0</ele>
        <time>2020-05-17T13:43:27Z</time>
      </trkpt>
      <trkpt lat="42.828106" lon="0.663395">
        <ele>1943.7</ele>
        <time>2020-05-17T13:43:45Z</time>
      </trkpt>
      <trkpt lat="42.828098" lon="0.663267">
        <ele>1946.9</ele>
        <time>2020-05-17T13:44:07Z</time>
      </trkpt>
      <trkpt lat="42.828129" lon="0.663157">
        <ele>1951.3</ele>
        <time>2020-05-17T13:44:30Z</time>
      </trkpt>
      <trkpt lat="42.828121" lon="0.663036">
        <ele>1955.6</ele>
        <time>2020-05-17T13:44:53Z</time>
      </trkpt>
      <trkpt lat="42.828146" lon="0.662918">
        <ele>1959.9</ele>
        <time>2020-05-17T13:45:17Z</time>
      </trkpt>
      <trkpt lat="42.828161" lon="0.662801">
        <ele>1963.0</ele>
        <time>2020-05-17T13:45:43Z</time>
      </trkpt>
      <trkpt lat="42.828158" lon="0.662701">
        <ele>1965.5</ele>
        <time>2020-05-17T13:46:02Z</time>
      </trkpt>
      <trkpt lat="42.828151" lon="0.662572">
        <ele>1968.3</ele>
        <time>2020-05-17T13:46:21Z</time>
      </trkpt>
      <trkpt lat="42.828135" lon="0.662447">
        <ele>1971.4</ele>
        <time>2020-05-17T13:46:42Z</time>
      </trkpt>
      <trkpt lat="42.828174" lon="0.662364">
        <ele>1975.0</ele>
        <time>2020-05-17T13:47:20Z</time>
      </trkpt>
      <trkpt lat="42.828236" lon="0.662278">
        <ele>1977.7</ele>
        <time>2020-05-17T13:47:34Z</time>
      </trkpt>
      <trkpt lat="42.828298" lon="0.662169">
        <ele>1979.5</ele>
        <time>2020-05-17T13:47:48Z</time>
      </trkpt>
      <trkpt lat="42.828373" lon="0.662092">
        <ele>1982.2</ele>
        <time>2020-05-17T13:48:03Z</time>
      </trkpt>
      <trkpt lat="42.828469" lon="0.662043">
        <ele>1983.7</ele>
        <time>2020-05-17T13:48:19Z</time>
      </trkpt>
      <trkpt lat="42.828572" lon="0.662019">
        <ele>1986.7</ele>
        <time>2020-05-17T13:48:33Z</time>
      </trkpt>
      <trkpt lat="42.828678" lon="0.661999">
        <ele>1988.6</ele>
        <time>2020-05-17T13:48:47Z</time>
      </trkpt>
      <trkpt lat="42.828771" lon="0.661947">
        <ele>1990.1</ele>
        <time>2020-05-17T13:48:59Z</time>
      </trkpt>
      <trkpt lat="42.828862" lon="0.661919">
        <ele>1992.8</ele>
        <time>2020-05-17T13:49:14Z</time>
      </trkpt>
      <trkpt lat="42.828940" lon="0.661857">
        <ele>1995.3</ele>
        <time>2020-05-17T13:49:45Z</time>
      </trkpt>
      <trkpt lat="42.829029" lon="0.661815">
        <ele>1997.1</ele>
        <time>2020-05-17T13:49:57Z</time>
      </trkpt>
      <trkpt lat="42.829136" lon="0.661786">
        <ele>1999.6</ele>
        <time>2020-05-17T13:50:10Z</time>
      </trkpt>
      <trkpt lat="42.829228" lon="0.661727">
        <ele>2002.2</ele>
        <time>2020-05-17T13:50:22Z</time>
      </trkpt>
      <trkpt lat="42.829323" lon="0.661687">
        <ele>2004.8</ele>
        <time>2020-05-17T13:50:37Z</time>
      </trkpt>
      <trkpt lat="42.829418" lon="0.661685">
        <ele>2007.5</ele>
        <time>2020-05-17T13:50:50Z</time>
      </trkpt>
      <trkpt lat="42.829501" lon="0.661628">
        <ele>2011.0</ele>
        <time>2020-05-17T13:51:06Z</time>
      </trkpt>
      <trkpt lat="42.829588" lon="0.661609">
        <ele>2013.2</ele>
        <time>2020-05-17T13:51:23Z</time>
      </trkpt>
      <trkpt lat="42.829663" lon="0.661544">
        <ele>2017.7</ele>
        <time>2020-05-17T13:51:44Z</time>
      </trkpt>
      <trkpt lat="42.829766" lon="0.661563">
        <ele>2022.0</ele>
        <time>2020-05-17T13:52:08Z</time>
      </trkpt>
      <trkpt lat="42.829864" lon="0.661558">
        <ele>2027.2</ele>
        <time>2020-05-17T13:52:30Z</time>
      </trkpt>
      <trkpt lat="42.829958" lon="0.661570">
        <ele>2030.2</ele>
        <time>2020-05-17T13:52:49Z</time>
      </trkpt>
      <trkpt lat="42.830054" lon="0.661575">
        <ele>2034.1</ele>
        <time>2020-05-17T13:53:05Z</time>
      </trkpt>
      <trkpt lat="42.830149" lon="0.661547">
        <ele>2036.7</ele>
        <time>2020-05-17T13:53:20Z</time>
      </trkpt>
      <trkpt lat="42.830232" lon="0.661501">
        <ele>2039.1</ele>
        <time>2020-05-17T13:54:18Z</time>
      </trkpt>
      <trkpt lat="42.830303" lon="0.661438">
        <ele>2040.0</ele>
        <time>2020-05-17T13:54:48Z</time>
      </trkpt>
      <trkpt lat="42.830395" lon="0.661402">
        <ele>2040.8</ele>
        <time>2020-05-17T13:55:03Z</time>
      </trkpt>
      <trkpt lat="42.830486" lon="0.661363">
        <ele>2042.7</ele>
        <time>2020-05-17T13:55:16Z</time>
      </trkpt>
      <trkpt lat="42.830580" lon="0.661331">
        <ele>2045.6</ele>
        <time>2020-05-17T13:55:32Z</time>
      </trkpt>
      <trkpt lat="42.830648" lon="0.661258">
        <ele>2047.4</ele>
        <time>2020-05-17T13:55:45Z</time>
      </trkpt>
      <trkpt lat="42.830736" lon="0.661190">
        <ele>2049.0</ele>
        <time>2020-05-17T13:55:57Z</time>
      </trkpt>
      <trkpt lat="42.830835" lon="0.661146">
        <ele>2050.8</ele>
        <time>2020-05-17T13:56:08Z</time>
      </trkpt>
      <trkpt lat="42.830933" lon="0.661112">
        <ele>2050.8</ele>
        <time>2020-05-17T13:56:18Z</time>
      </trkpt>
      <trkpt lat="42.831040" lon="0.661082">
        <ele>2051.6</ele>
        <time>2020-05-17T13:56:30Z</time>
      </trkpt>
      <trkpt lat="42.831130" lon="0.661046">
        <ele>2054.4</ele>
        <time>2020-05-17T13:56:42Z</time>
      </trkpt>
      <trkpt lat="42.831222" lon="0.661053">
        <ele>2056.2</ele>
        <time>2020-05-17T13:56:58Z</time>
      </trkpt>
      <trkpt lat="42.831279" lon="0.660983">
        <ele>2061.3</ele>
        <time>2020-05-17T13:57:19Z</time>
      </trkpt>
      <trkpt lat="42.831374" lon="0.660957">
        <ele>2066.1</ele>
        <time>2020-05-17T13:57:41Z</time>
      </trkpt>
      <trkpt lat="42.831441" lon="0.660885">
        <ele>2069.6</ele>
        <time>2020-05-17T13:58:02Z</time>
      </trkpt>
      <trkpt lat="42.831510" lon="0.660851">
        <ele>2073.4</ele>
        <time>2020-05-17T13:58:21Z</time>
      </trkpt>
      <trkpt lat="42.831602" lon="0.660825">
        <ele>2076.1</ele>
        <time>2020-05-17T13:58:36Z</time>
      </trkpt>
      <trkpt lat="42.831690" lon="0.660791">
        <ele>2077.9</ele>
        <time>2020-05-17T13:58:46Z</time>
      </trkpt>
      <trkpt lat="42.831774" lon="0.660719">
        <ele>2077.8</ele>
        <time>2020-05-17T13:58:56Z</time>
      </trkpt>
      <trkpt lat="42.831868" lon="0.660675">
        <ele>2077.8</ele>
        <time>2020-05-17T13:59:06Z</time>
      </trkpt>
      <trkpt lat="42.831949" lon="0.660600">
        <ele>2077.8</ele>
        <time>2020-05-17T13:59:20Z</time>
      </trkpt>
      <trkpt lat="42.831977" lon="0.660566">
        <ele>2077.9</ele>
        <time>2020-05-17T13:59:51Z</time>
      </trkpt>
      <trkpt lat="42.832064" lon="0.660528">
        <ele>2077.9</ele>
        <time>2020-05-17T14:00:04Z</time>
      </trkpt>
      <trkpt lat="42.832154" lon="0.660481">
        <ele>2077.9</ele>
        <time>2020-05-17T14:00:13Z</time>
      </trkpt>
      <trkpt lat="42.832250" lon="0.660426">
        <ele>2077.9</ele>
        <time>2020-05-17T14:00:22Z</time>
      </trkpt>
      <trkpt lat="42.832348" lon="0.660379">
        <ele>2077.9</ele>
        <time>2020-05-17T14:00:31Z</time>
      </trkpt>
      <trkpt lat="42.832444" lon="0.660331">
        <ele>2078.0</ele>
        <time>2020-05-17T14:00:46Z</time>
      </trkpt>
      <trkpt lat="42.832541" lon="0.660293">
        <ele>2078.0</ele>
        <time>2020-05-17T14:00:57Z</time>
      </trkpt>
      <trkpt lat="42.832610" lon="0.660241">
        <ele>2078.1</ele>
        <time>2020-05-17T14:02:03Z</time>
      </trkpt>
      <trkpt lat="42.832651" lon="0.660236">
        <ele>2078.1</ele>
        <time>2020-05-17T14:03:50Z</time>
      </trkpt>
      <trkpt lat="42.832641" lon="0.660244">
        <ele>2078.1</ele>
        <time>2020-05-17T14:04:45Z</time>
      </trkpt>
      <trkpt lat="42.832600" lon="0.660240">
        <ele>2079.2</ele>
        <time>2020-05-17T14:18:15Z</time>
      </trkpt>
      <trkpt lat="42.832513" lon="0.660272">
        <ele>2079.2</ele>
        <time>2020-05-17T14:18:28Z</time>
      </trkpt>
      <trkpt lat="42.832429" lon="0.660305">
        <ele>2079.2</ele>
        <time>2020-05-17T14:18:44Z</time>
      </trkpt>
      <trkpt lat="42.832337" lon="0.660342">
        <ele>2079.2</ele>
        <time>2020-05-17T14:18:54Z</time>
      </trkpt>
      <trkpt lat="42.832253" lon="0.660386">
        <ele>2079.3</ele>
        <time>2020-05-17T14:19:03Z</time>
      </trkpt>
      <trkpt lat="42.832158" lon="0.660404">
        <ele>2079.3</ele>
        <time>2020-05-17T14:19:13Z</time>
      </trkpt>
      <trkpt lat="42.832121" lon="0.660311">
        <ele>2080.0</ele>
        <time>2020-05-17T14:29:49Z</time>
      </trkpt>
      <trkpt lat="42.832114" lon="0.660197">
        <ele>2080.0</ele>
        <time>2020-05-17T14:30:00Z</time>
      </trkpt>
      <trkpt lat="42.832102" lon="0.660076">
        <ele>2079.9</ele>
        <time>2020-05-17T14:30:09Z</time>
      </trkpt>
      <trkpt lat="42.832092" lon="0.659947">
        <ele>2077.6</ele>
        <time>2020-05-17T14:30:19Z</time>
      </trkpt>
      <trkpt lat="42.832077" lon="0.659817">
        <ele>2076.7</ele>
        <time>2020-05-17T14:30:29Z</time>
      </trkpt>
      <trkpt lat="42.832073" lon="0.659705">
        <ele>2075.8</ele>
        <time>2020-05-17T14:30:39Z</time>
      </trkpt>
      <trkpt lat="42.832078" lon="0.659588">
        <ele>2074.9</ele>
        <time>2020-05-17T14:30:47Z</time>
      </trkpt>
      <trkpt lat="42.832074" lon="0.659462">
        <ele>2074.1</ele>
        <time>2020-05-17T14:30:55Z</time>
      </trkpt>
      <trkpt lat="42.832060" lon="0.659325">
        <ele>2072.2</ele>
        <time>2020-05-17T14:31:03Z</time>
      </trkpt>
      <trkpt lat="42.832051" lon="0.659181">
        <ele>2071.3</ele>
        <time>2020-05-17T14:31:11Z</time>
      </trkpt>
      <trkpt lat="42.832028" lon="0.659037">
        <ele>2068.3</ele>
        <time>2020-05-17T14:31:19Z</time>
      </trkpt>
      <trkpt lat="42.832018" lon="0.658914">
        <ele>2066.4</ele>
        <time>2020-05-17T14:31:27Z</time>
      </trkpt>
      <trkpt lat="42.832053" lon="0.658797">
        <ele>2064.6</ele>
        <time>2020-05-17T14:31:36Z</time>
      </trkpt>
      <trkpt lat="42.832050" lon="0.658675">
        <ele>2061.7</ele>
        <time>2020-05-17T14:31:47Z</time>
      </trkpt>
      <trkpt lat="42.832045" lon="0.658566">
        <ele>2057.8</ele>
        <time>2020-05-17T14:31:59Z</time>
      </trkpt>
      <trkpt lat="42.832000" lon="0.658466">
        <ele>2056.7</ele>
        <time>2020-05-17T14:32:08Z</time>
      </trkpt>
      <trkpt lat="42.831974" lon="0.658353">
        <ele>2052.9</ele>
        <time>2020-05-17T14:32:18Z</time>
      </trkpt>
      <trkpt lat="42.831922" lon="0.658251">
        <ele>2049.2</ele>
        <time>2020-05-17T14:32:26Z</time>
      </trkpt>
      <trkpt lat="42.831900" lon="0.658146">
        <ele>2045.9</ele>
        <time>2020-05-17T14:32:34Z</time>
      </trkpt>
      <trkpt lat="42.831844" lon="0.658052">
        <ele>2042.7</ele>
        <time>2020-05-17T14:32:43Z</time>
      </trkpt>
      <trkpt lat="42.831782" lon="0.657957">
        <ele>2040.7</ele>
        <time>2020-05-17T14:32:53Z</time>
      </trkpt>
      <trkpt lat="42.831724" lon="0.657884">
        <ele>2036.5</ele>
        <time>2020-05-17T14:33:02Z</time>
      </trkpt>
      <trkpt lat="42.831779" lon="0.657792">
        <ele>2032.8</ele>
        <time>2020-05-17T14:33:11Z</time>
      </trkpt>
      <trkpt lat="42.831794" lon="0.657662">
        <ele>2030.8</ele>
        <time>2020-05-17T14:33:34Z</time>
      </trkpt>
      <trkpt lat="42.831792" lon="0.657535">
        <ele>2027.5</ele>
        <time>2020-05-17T14:33:44Z</time>
      </trkpt>
      <trkpt lat="42.831802" lon="0.657427">
        <ele>2023.0</ele>
        <time>2020-05-17T14:33:55Z</time>
      </trkpt>
      <trkpt lat="42.831797" lon="0.657304">
        <ele>2020.2</ele>
        <time>2020-05-17T14:34:07Z</time>
      </trkpt>
      <trkpt lat="42.831755" lon="0.657186">
        <ele>2017.4</ele>
        <time>2020-05-17T14:34:39Z</time>
      </trkpt>
      <trkpt lat="42.831730" lon="0.657081">
        <ele>2013.4</ele>
        <time>2020-05-17T14:34:49Z</time>
      </trkpt>
      <trkpt lat="42.831759" lon="0.656968">
        <ele>2008.9</ele>
        <time>2020-05-17T14:34:58Z</time>
      </trkpt>
      <trkpt lat="42.831759" lon="0.656839">
        <ele>2004.9</ele>
        <time>2020-05-17T14:35:09Z</time>
      </trkpt>
      <trkpt lat="42.831766" lon="0.656716">
        <ele>2000.3</ele>
        <time>2020-05-17T14:35:22Z</time>
      </trkpt>
      <trkpt lat="42.831771" lon="0.656588">
        <ele>1995.6</ele>
        <time>2020-05-17T14:35:34Z</time>
      </trkpt>
      <trkpt lat="42.831793" lon="0.656466">
        <ele>1991.6</ele>
        <time>2020-05-17T14:35:43Z</time>
      </trkpt>
      <trkpt lat="42.831818" lon="0.656343">
        <ele>1987.9</ele>
        <time>2020-05-17T14:35:51Z</time>
      </trkpt>
      <trkpt lat="42.831845" lon="0.656204">
        <ele>1984.0</ele>
        <time>2020-05-17T14:35:58Z</time>
      </trkpt>
      <trkpt lat="42.831851" lon="0.656081">
        <ele>1980.7</ele>
        <time>2020-05-17T14:36:04Z</time>
      </trkpt>
      <trkpt lat="42.831818" lon="0.655944">
        <ele>1976.0</ele>
        <time>2020-05-17T14:36:12Z</time>
      </trkpt>
      <trkpt lat="42.831801" lon="0.655810">
        <ele>1972.7</ele>
        <time>2020-05-17T14:36:18Z</time>
      </trkpt>
      <trkpt lat="42.831785" lon="0.655688">
        <ele>1968.9</ele>
        <time>2020-05-17T14:36:24Z</time>
      </trkpt>
      <trkpt lat="42.831765" lon="0.655552">
        <ele>1965.2</ele>
        <time>2020-05-17T14:36:31Z</time>
      </trkpt>
      <trkpt lat="42.831743" lon="0.655409">
        <ele>1961.1</ele>
        <time>2020-05-17T14:36:37Z</time>
      </trkpt>
      <trkpt lat="42.831701" lon="0.655278">
        <ele>1959.3</ele>
        <time>2020-05-17T14:36:43Z</time>
      </trkpt>
      <trkpt lat="42.831693" lon="0.655140">
        <ele>1956.0</ele>
        <time>2020-05-17T14:36:49Z</time>
      </trkpt>
      <trkpt lat="42.831648" lon="0.655007">
        <ele>1952.9</ele>
        <time>2020-05-17T14:36:56Z</time>
      </trkpt>
      <trkpt lat="42.831618" lon="0.654875">
        <ele>1950.9</ele>
        <time>2020-05-17T14:37:03Z</time>
      </trkpt>
      <trkpt lat="42.831560" lon="0.654770">
        <ele>1948.9</ele>
        <time>2020-05-17T14:37:10Z</time>
      </trkpt>
      <trkpt lat="42.831493" lon="0.654685">
        <ele>1948.0</ele>
        <time>2020-05-17T14:37:16Z</time>
      </trkpt>
      <trkpt lat="42.831434" lon="0.654571">
        <ele>1946.4</ele>
        <time>2020-05-17T14:37:23Z</time>
      </trkpt>
      <trkpt lat="42.831377" lon="0.654457">
        <ele>1945.5</ele>
        <time>2020-05-17T14:37:31Z</time>
      </trkpt>
      <trkpt lat="42.831318" lon="0.654355">
        <ele>1944.5</ele>
        <time>2020-05-17T14:37:40Z</time>
      </trkpt>
      <trkpt lat="42.831257" lon="0.654263">
        <ele>1943.7</ele>
        <time>2020-05-17T14:37:49Z</time>
      </trkpt>
      <trkpt lat="42.831207" lon="0.654156">
        <ele>1943.7</ele>
        <time>2020-05-17T14:38:10Z</time>
      </trkpt>
      <trkpt lat="42.831171" lon="0.654050">
        <ele>1942.9</ele>
        <time>2020-05-17T14:38:32Z</time>
      </trkpt>
      <trkpt lat="42.831129" lon="0.653931">
        <ele>1942.9</ele>
        <time>2020-05-17T14:38:42Z</time>
      </trkpt>
      <trkpt lat="42.831092" lon="0.653799">
        <ele>1945.3</ele>
        <time>2020-05-17T14:38:52Z</time>
      </trkpt>
      <trkpt lat="42.831074" lon="0.653668">
        <ele>1946.1</ele>
        <time>2020-05-17T14:39:00Z</time>
      </trkpt>
      <trkpt lat="42.831048" lon="0.653511">
        <ele>1946.9</ele>
        <time>2020-05-17T14:39:09Z</time>
      </trkpt>
      <trkpt lat="42.831032" lon="0.653371">
        <ele>1946.9</ele>
        <time>2020-05-17T14:39:17Z</time>
      </trkpt>
      <trkpt lat="42.831019" lon="0.653238">
        <ele>1946.8</ele>
        <time>2020-05-17T14:39:25Z</time>
      </trkpt>
      <trkpt lat="42.831018" lon="0.653107">
        <ele>1946.8</ele>
        <time>2020-05-17T14:39:33Z</time>
      </trkpt>
      <trkpt lat="42.831006" lon="0.652983">
        <ele>1944.4</ele>
        <time>2020-05-17T14:39:41Z</time>
      </trkpt>
      <trkpt lat="42.830985" lon="0.652864">
        <ele>1943.4</ele>
        <time>2020-05-17T14:39:49Z</time>
      </trkpt>
      <trkpt lat="42.830987" lon="0.652739">
        <ele>1941.6</ele>
        <time>2020-05-17T14:39:57Z</time>
      </trkpt>
      <trkpt lat="42.830984" lon="0.652605">
        <ele>1939.4</ele>
        <time>2020-05-17T14:40:05Z</time>
      </trkpt>
      <trkpt lat="42.830994" lon="0.652479">
        <ele>1937.6</ele>
        <time>2020-05-17T14:40:12Z</time>
      </trkpt>
      <trkpt lat="42.830994" lon="0.652353">
        <ele>1936.7</ele>
        <time>2020-05-17T14:40:19Z</time>
      </trkpt>
      <trkpt lat="42.831015" lon="0.652226">
        <ele>1933.6</ele>
        <time>2020-05-17T14:40:26Z</time>
      </trkpt>
      <trkpt lat="42.831031" lon="0.652096">
        <ele>1932.8</ele>
        <time>2020-05-17T14:40:33Z</time>
      </trkpt>
      <trkpt lat="42.831043" lon="0.651960">
        <ele>1932.8</ele>
        <time>2020-05-17T14:40:40Z</time>
      </trkpt>
      <trkpt lat="42.831056" lon="0.651824">
        <ele>1931.0</ele>
        <time>2020-05-17T14:40:47Z</time>
      </trkpt>
      <trkpt lat="42.831087" lon="0.651700">
        <ele>1929.1</ele>
        <time>2020-05-17T14:40:57Z</time>
      </trkpt>
      <trkpt lat="42.831101" lon="0.651563">
        <ele>1928.2</ele>
        <time>2020-05-17T14:41:08Z</time>
      </trkpt>
      <trkpt lat="42.831131" lon="0.651440">
        <ele>1927.2</ele>
        <time>2020-05-17T14:41:17Z</time>
      </trkpt>
      <trkpt lat="42.831136" lon="0.651302">
        <ele>1927.2</ele>
        <time>2020-05-17T14:41:27Z</time>
      </trkpt>
      <trkpt lat="42.831124" lon="0.651166">
        <ele>1927.2</ele>
        <time>2020-05-17T14:41:37Z</time>
      </trkpt>
      <trkpt lat="42.831136" lon="0.651040">
        <ele>1927.1</ele>
        <time>2020-05-17T14:41:51Z</time>
      </trkpt>
      <trkpt lat="42.831171" lon="0.650907">
        <ele>1927.0</ele>
        <time>2020-05-17T14:42:19Z</time>
      </trkpt>
      <trkpt lat="42.831188" lon="0.650785">
        <ele>1926.9</ele>
        <time>2020-05-17T14:42:34Z</time>
      </trkpt>
      <trkpt lat="42.831176" lon="0.650664">
        <ele>1925.2</ele>
        <time>2020-05-17T14:42:48Z</time>
      </trkpt>
      <trkpt lat="42.831158" lon="0.650532">
        <ele>1924.3</ele>
        <time>2020-05-17T14:42:57Z</time>
      </trkpt>
      <trkpt lat="42.831137" lon="0.650405">
        <ele>1923.4</ele>
        <time>2020-05-17T14:43:06Z</time>
      </trkpt>
      <trkpt lat="42.831105" lon="0.650287">
        <ele>1922.7</ele>
        <time>2020-05-17T14:43:21Z</time>
      </trkpt>
      <trkpt lat="42.831057" lon="0.650165">
        <ele>1921.8</ele>
        <time>2020-05-17T14:43:40Z</time>
      </trkpt>
      <trkpt lat="42.831023" lon="0.650043">
        <ele>1921.8</ele>
        <time>2020-05-17T14:43:50Z</time>
      </trkpt>
      <trkpt lat="42.830976" lon="0.649913">
        <ele>1921.7</ele>
        <time>2020-05-17T14:44:01Z</time>
      </trkpt>
      <trkpt lat="42.830915" lon="0.649797">
        <ele>1921.7</ele>
        <time>2020-05-17T14:44:11Z</time>
      </trkpt>
      <trkpt lat="42.830867" lon="0.649681">
        <ele>1921.6</ele>
        <time>2020-05-17T14:44:20Z</time>
      </trkpt>
      <trkpt lat="42.830828" lon="0.649557">
        <ele>1923.9</ele>
        <time>2020-05-17T14:44:29Z</time>
      </trkpt>
      <trkpt lat="42.830783" lon="0.649436">
        <ele>1923.9</ele>
        <time>2020-05-17T14:44:37Z</time>
      </trkpt>
      <trkpt lat="42.830741" lon="0.649315">
        <ele>1924.7</ele>
        <time>2020-05-17T14:44:45Z</time>
      </trkpt>
      <trkpt lat="42.830703" lon="0.649197">
        <ele>1924.7</ele>
        <time>2020-05-17T14:44:53Z</time>
      </trkpt>
      <trkpt lat="42.830660" lon="0.649080">
        <ele>1924.6</ele>
        <time>2020-05-17T14:45:01Z</time>
      </trkpt>
      <trkpt lat="42.830613" lon="0.648961">
        <ele>1924.6</ele>
        <time>2020-05-17T14:45:09Z</time>
      </trkpt>
      <trkpt lat="42.830571" lon="0.648836">
        <ele>1924.6</ele>
        <time>2020-05-17T14:45:17Z</time>
      </trkpt>
      <trkpt lat="42.830522" lon="0.648714">
        <ele>1924.6</ele>
        <time>2020-05-17T14:45:25Z</time>
      </trkpt>
      <trkpt lat="42.830471" lon="0.648598">
        <ele>1924.5</ele>
        <time>2020-05-17T14:45:34Z</time>
      </trkpt>
      <trkpt lat="42.830407" lon="0.648501">
        <ele>1924.5</ele>
        <time>2020-05-17T14:45:42Z</time>
      </trkpt>
      <trkpt lat="42.830351" lon="0.648392">
        <ele>1924.5</ele>
        <time>2020-05-17T14:45:50Z</time>
      </trkpt>
      <trkpt lat="42.830318" lon="0.648271">
        <ele>1924.5</ele>
        <time>2020-05-17T14:45:58Z</time>
      </trkpt>
      <trkpt lat="42.830295" lon="0.648150">
        <ele>1924.5</ele>
        <time>2020-05-17T14:46:06Z</time>
      </trkpt>
      <trkpt lat="42.830259" lon="0.648019">
        <ele>1924.5</ele>
        <time>2020-05-17T14:46:15Z</time>
      </trkpt>
      <trkpt lat="42.830215" lon="0.647897">
        <ele>1924.4</ele>
        <time>2020-05-17T14:46:24Z</time>
      </trkpt>
      <trkpt lat="42.830155" lon="0.647790">
        <ele>1924.4</ele>
        <time>2020-05-17T14:46:33Z</time>
      </trkpt>
      <trkpt lat="42.830083" lon="0.647691">
        <ele>1924.3</ele>
        <time>2020-05-17T14:46:43Z</time>
      </trkpt>
      <trkpt lat="42.830027" lon="0.647583">
        <ele>1922.0</ele>
        <time>2020-05-17T14:46:51Z</time>
      </trkpt>
      <trkpt lat="42.829979" lon="0.647463">
        <ele>1921.1</ele>
        <time>2020-05-17T14:46:59Z</time>
      </trkpt>
      <trkpt lat="42.829936" lon="0.647339">
        <ele>1920.2</ele>
        <time>2020-05-17T14:47:07Z</time>
      </trkpt>
      <trkpt lat="42.829897" lon="0.647206">
        <ele>1919.4</ele>
        <time>2020-05-17T14:47:16Z</time>
      </trkpt>
      <trkpt lat="42.829868" lon="0.647076">
        <ele>1918.6</ele>
        <time>2020-05-17T14:47:24Z</time>
      </trkpt>
      <trkpt lat="42.829841" lon="0.646959">
        <ele>1918.5</ele>
        <time>2020-05-17T14:47:31Z</time>
      </trkpt>
      <trkpt lat="42.829808" lon="0.646829">
        <ele>1918.5</ele>
        <time>2020-05-17T14:47:39Z</time>
      </trkpt>
      <trkpt lat="42.829778" lon="0.646696">
        <ele>1918.5</ele>
        <time>2020-05-17T14:47:47Z</time>
      </trkpt>
      <trkpt lat="42.829749" lon="0.646573">
        <ele>1917.7</ele>
        <time>2020-05-17T14:47:55Z</time>
      </trkpt>
      <trkpt lat="42.829725" lon="0.646445">
        <ele>1916.9</ele>
        <time>2020-05-17T14:48:03Z</time>
      </trkpt>
      <trkpt lat="42.829704" lon="0.646313">
        <ele>1916.1</ele>
        <time>2020-05-17T14:48:11Z</time>
      </trkpt>
      <trkpt lat="42.829683" lon="0.646190">
        <ele>1916.1</ele>
        <time>2020-05-17T14:48:19Z</time>
      </trkpt>
      <trkpt lat="42.829667" lon="0.646063">
        <ele>1915.3</ele>
        <time>2020-05-17T14:48:27Z</time>
      </trkpt>
      <trkpt lat="42.829646" lon="0.645939">
        <ele>1914.3</ele>
        <time>2020-05-17T14:48:35Z</time>
      </trkpt>
      <trkpt lat="42.829630" lon="0.645811">
        <ele>1913.5</ele>
        <time>2020-05-17T14:48:43Z</time>
      </trkpt>
      <trkpt lat="42.829600" lon="0.645684">
        <ele>1912.6</ele>
        <time>2020-05-17T14:48:52Z</time>
      </trkpt>
      <trkpt lat="42.829581" lon="0.645570">
        <ele>1911.7</ele>
        <time>2020-05-17T14:49:22Z</time>
      </trkpt>
      <trkpt lat="42.829563" lon="0.645434">
        <ele>1910.6</ele>
        <time>2020-05-17T14:49:31Z</time>
      </trkpt>
      <trkpt lat="42.829529" lon="0.645302">
        <ele>1907.6</ele>
        <time>2020-05-17T14:49:40Z</time>
      </trkpt>
      <trkpt lat="42.829488" lon="0.645180">
        <ele>1906.7</ele>
        <time>2020-05-17T14:49:48Z</time>
      </trkpt>
      <trkpt lat="42.829459" lon="0.645056">
        <ele>1905.6</ele>
        <time>2020-05-17T14:49:56Z</time>
      </trkpt>
      <trkpt lat="42.829433" lon="0.644929">
        <ele>1904.7</ele>
        <time>2020-05-17T14:50:04Z</time>
      </trkpt>
      <trkpt lat="42.829413" lon="0.644798">
        <ele>1904.8</ele>
        <time>2020-05-17T14:50:13Z</time>
      </trkpt>
      <trkpt lat="42.829411" lon="0.644660">
        <ele>1904.8</ele>
        <time>2020-05-17T14:50:24Z</time>
      </trkpt>
      <trkpt lat="42.829403" lon="0.644523">
        <ele>1903.8</ele>
        <time>2020-05-17T14:50:34Z</time>
      </trkpt>
      <trkpt lat="42.829415" lon="0.644392">
        <ele>1903.8</ele>
        <time>2020-05-17T14:50:45Z</time>
      </trkpt>
      <trkpt lat="42.829436" lon="0.644265">
        <ele>1901.9</ele>
        <time>2020-05-17T14:50:57Z</time>
      </trkpt>
      <trkpt lat="42.829449" lon="0.644138">
        <ele>1901.9</ele>
        <time>2020-05-17T14:51:08Z</time>
      </trkpt>
      <trkpt lat="42.829449" lon="0.643997">
        <ele>1899.2</ele>
        <time>2020-05-17T14:51:19Z</time>
      </trkpt>
      <trkpt lat="42.829438" lon="0.643860">
        <ele>1896.8</ele>
        <time>2020-05-17T14:51:31Z</time>
      </trkpt>
      <trkpt lat="42.829412" lon="0.643720">
        <ele>1893.9</ele>
        <time>2020-05-17T14:51:45Z</time>
      </trkpt>
      <trkpt lat="42.829392" lon="0.643580">
        <ele>1891.1</ele>
        <time>2020-05-17T14:51:56Z</time>
      </trkpt>
      <trkpt lat="42.829372" lon="0.643442">
        <ele>1888.9</ele>
        <time>2020-05-17T14:52:06Z</time>
      </trkpt>
      <trkpt lat="42.829344" lon="0.643311">
        <ele>1886.2</ele>
        <time>2020-05-17T14:52:16Z</time>
      </trkpt>
      <trkpt lat="42.829299" lon="0.643179">
        <ele>1883.9</ele>
        <time>2020-05-17T14:52:30Z</time>
      </trkpt>
      <trkpt lat="42.829234" lon="0.643065">
        <ele>1881.7</ele>
        <time>2020-05-17T14:52:41Z</time>
      </trkpt>
      <trkpt lat="42.829242" lon="0.642925">
        <ele>1877.5</ele>
        <time>2020-05-17T14:52:51Z</time>
      </trkpt>
      <trkpt lat="42.829246" lon="0.642782">
        <ele>1877.7</ele>
        <time>2020-05-17T14:53:01Z</time>
      </trkpt>
      <trkpt lat="42.829238" lon="0.642649">
        <ele>1876.7</ele>
        <time>2020-05-17T14:53:13Z</time>
      </trkpt>
      <trkpt lat="42.829220" lon="0.642515">
        <ele>1874.7</ele>
        <time>2020-05-17T14:53:24Z</time>
      </trkpt>
      <trkpt lat="42.829180" lon="0.642385">
        <ele>1872.1</ele>
        <time>2020-05-17T14:53:38Z</time>
      </trkpt>
      <trkpt lat="42.829128" lon="0.642258">
        <ele>1869.5</ele>
        <time>2020-05-17T14:53:50Z</time>
      </trkpt>
      <trkpt lat="42.829133" lon="0.642119">
        <ele>1865.6</ele>
        <time>2020-05-17T14:54:04Z</time>
      </trkpt>
      <trkpt lat="42.829144" lon="0.641992">
        <ele>1861.9</ele>
        <time>2020-05-17T14:54:16Z</time>
      </trkpt>
      <trkpt lat="42.829190" lon="0.641868">
        <ele>1859.0</ele>
        <time>2020-05-17T14:54:28Z</time>
      </trkpt>
      <trkpt lat="42.829218" lon="0.641745">
        <ele>1855.0</ele>
        <time>2020-05-17T14:54:41Z</time>
      </trkpt>
      <trkpt lat="42.829223" lon="0.641612">
        <ele>1850.9</ele>
        <time>2020-05-17T14:54:53Z</time>
      </trkpt>
      <trkpt lat="42.829230" lon="0.641487">
        <ele>1847.6</ele>
        <time>2020-05-17T14:55:05Z</time>
      </trkpt>
      <trkpt lat="42.829216" lon="0.641357">
        <ele>1845.0</ele>
        <time>2020-05-17T14:55:17Z</time>
      </trkpt>
      <trkpt lat="42.829220" lon="0.641225">
        <ele>1841.3</ele>
        <time>2020-05-17T14:55:33Z</time>
      </trkpt>
      <trkpt lat="42.829219" lon="0.641099">
        <ele>1837.6</ele>
        <time>2020-05-17T14:55:48Z</time>
      </trkpt>
      <trkpt lat="42.829207" lon="0.640973">
        <ele>1835.0</ele>
        <time>2020-05-17T14:55:59Z</time>
      </trkpt>
      <trkpt lat="42.829222" lon="0.640838">
        <ele>1831.1</ele>
        <time>2020-05-17T14:56:11Z</time>
      </trkpt>
      <trkpt lat="42.829193" lon="0.640699">
        <ele>1829.2</ele>
        <time>2020-05-17T14:56:24Z</time>
      </trkpt>
      <trkpt lat="42.829151" lon="0.640582">
        <ele>1828.4</ele>
        <time>2020-05-17T14:56:35Z</time>
      </trkpt>
      <trkpt lat="42.829128" lon="0.640449">
        <ele>1825.5</ele>
        <time>2020-05-17T14:56:48Z</time>
      </trkpt>
      <trkpt lat="42.829079" lon="0.640332">
        <ele>1822.2</ele>
        <time>2020-05-17T14:56:57Z</time>
      </trkpt>
      <trkpt lat="42.829056" lon="0.640205">
        <ele>1819.5</ele>
        <time>2020-05-17T14:57:05Z</time>
      </trkpt>
      <trkpt lat="42.829045" lon="0.640064">
        <ele>1817.7</ele>
        <time>2020-05-17T14:57:15Z</time>
      </trkpt>
      <trkpt lat="42.829042" lon="0.639919">
        <ele>1815.7</ele>
        <time>2020-05-17T14:57:26Z</time>
      </trkpt>
      <trkpt lat="42.829042" lon="0.639801">
        <ele>1814.8</ele>
        <time>2020-05-17T14:57:36Z</time>
      </trkpt>
      <trkpt lat="42.829044" lon="0.639674">
        <ele>1812.8</ele>
        <time>2020-05-17T14:57:44Z</time>
      </trkpt>
      <trkpt lat="42.829048" lon="0.639548">
        <ele>1811.9</ele>
        <time>2020-05-17T14:57:52Z</time>
      </trkpt>
      <trkpt lat="42.829022" lon="0.639415">
        <ele>1809.1</ele>
        <time>2020-05-17T14:58:01Z</time>
      </trkpt>
      <trkpt lat="42.828997" lon="0.639285">
        <ele>1806.0</ele>
        <time>2020-05-17T14:58:12Z</time>
      </trkpt>
      <trkpt lat="42.828950" lon="0.639165">
        <ele>1804.3</ele>
        <time>2020-05-17T14:58:21Z</time>
      </trkpt>
      <trkpt lat="42.828915" lon="0.639067">
        <ele>1801.9</ele>
        <time>2020-05-17T15:02:50Z</time>
      </trkpt>
      <trkpt lat="42.828866" lon="0.638954">
        <ele>1801.8</ele>
        <time>2020-05-17T15:03:07Z</time>
      </trkpt>
      <trkpt lat="42.828811" lon="0.638827">
        <ele>1801.8</ele>
        <time>2020-05-17T15:03:18Z</time>
      </trkpt>
      <trkpt lat="42.828747" lon="0.638717">
        <ele>1800.1</ele>
        <time>2020-05-17T15:03:26Z</time>
      </trkpt>
      <trkpt lat="42.828673" lon="0.638628">
        <ele>1799.0</ele>
        <time>2020-05-17T15:03:35Z</time>
      </trkpt>
      <trkpt lat="42.828584" lon="0.638569">
        <ele>1796.5</ele>
        <time>2020-05-17T15:03:47Z</time>
      </trkpt>
      <trkpt lat="42.828523" lon="0.638478">
        <ele>1794.9</ele>
        <time>2020-05-17T15:04:04Z</time>
      </trkpt>
      <trkpt lat="42.828459" lon="0.638391">
        <ele>1792.1</ele>
        <time>2020-05-17T15:04:14Z</time>
      </trkpt>
      <trkpt lat="42.828396" lon="0.638297">
        <ele>1790.3</ele>
        <time>2020-05-17T15:04:23Z</time>
      </trkpt>
      <trkpt lat="42.828356" lon="0.638172">
        <ele>1787.6</ele>
        <time>2020-05-17T15:04:32Z</time>
      </trkpt>
      <trkpt lat="42.828304" lon="0.638059">
        <ele>1784.8</ele>
        <time>2020-05-17T15:04:41Z</time>
      </trkpt>
      <trkpt lat="42.828290" lon="0.637927">
        <ele>1783.2</ele>
        <time>2020-05-17T15:04:50Z</time>
      </trkpt>
      <trkpt lat="42.828297" lon="0.637796">
        <ele>1782.5</ele>
        <time>2020-05-17T15:05:00Z</time>
      </trkpt>
      <trkpt lat="42.828329" lon="0.637676">
        <ele>1780.6</ele>
        <time>2020-05-17T15:05:09Z</time>
      </trkpt>
      <trkpt lat="42.828346" lon="0.637546">
        <ele>1778.8</ele>
        <time>2020-05-17T15:05:17Z</time>
      </trkpt>
      <trkpt lat="42.828347" lon="0.637410">
        <ele>1776.9</ele>
        <time>2020-05-17T15:05:25Z</time>
      </trkpt>
      <trkpt lat="42.828349" lon="0.637278">
        <ele>1776.1</ele>
        <time>2020-05-17T15:05:56Z</time>
      </trkpt>
      <trkpt lat="42.828316" lon="0.637149">
        <ele>1774.7</ele>
        <time>2020-05-17T15:06:07Z</time>
      </trkpt>
      <trkpt lat="42.828324" lon="0.637025">
        <ele>1770.8</ele>
        <time>2020-05-17T15:06:18Z</time>
      </trkpt>
      <trkpt lat="42.828325" lon="0.636906">
        <ele>1767.6</ele>
        <time>2020-05-17T15:06:29Z</time>
      </trkpt>
      <trkpt lat="42.828313" lon="0.636778">
        <ele>1765.8</ele>
        <time>2020-05-17T15:06:39Z</time>
      </trkpt>
      <trkpt lat="42.828278" lon="0.636676">
        <ele>1762.9</ele>
        <time>2020-05-17T15:06:50Z</time>
      </trkpt>
      <trkpt lat="42.828230" lon="0.636564">
        <ele>1758.9</ele>
        <time>2020-05-17T15:07:05Z</time>
      </trkpt>
      <trkpt lat="42.828151" lon="0.636527">
        <ele>1756.1</ele>
        <time>2020-05-17T15:07:13Z</time>
      </trkpt>
      <trkpt lat="42.828056" lon="0.636540">
        <ele>1753.5</ele>
        <time>2020-05-17T15:07:22Z</time>
      </trkpt>
      <trkpt lat="42.827968" lon="0.636473">
        <ele>1750.9</ele>
        <time>2020-05-17T15:07:31Z</time>
      </trkpt>
      <trkpt lat="42.827928" lon="0.636360">
        <ele>1748.1</ele>
        <time>2020-05-17T15:07:40Z</time>
      </trkpt>
      <trkpt lat="42.827890" lon="0.636245">
        <ele>1746.1</ele>
        <time>2020-05-17T15:07:48Z</time>
      </trkpt>
      <trkpt lat="42.827820" lon="0.636153">
        <ele>1742.0</ele>
        <time>2020-05-17T15:07:56Z</time>
      </trkpt>
      <trkpt lat="42.827766" lon="0.636031">
        <ele>1740.3</ele>
        <time>2020-05-17T15:08:04Z</time>
      </trkpt>
      <trkpt lat="42.827697" lon="0.635925">
        <ele>1738.8</ele>
        <time>2020-05-17T15:08:12Z</time>
      </trkpt>
      <trkpt lat="42.827622" lon="0.635855">
        <ele>1738.8</ele>
        <time>2020-05-17T15:08:20Z</time>
      </trkpt>
      <trkpt lat="42.827579" lon="0.635737">
        <ele>1735.9</ele>
        <time>2020-05-17T15:08:28Z</time>
      </trkpt>
      <trkpt lat="42.827507" lon="0.635651">
        <ele>1733.1</ele>
        <time>2020-05-17T15:08:36Z</time>
      </trkpt>
      <trkpt lat="42.827429" lon="0.635565">
        <ele>1729.9</ele>
        <time>2020-05-17T15:08:45Z</time>
      </trkpt>
      <trkpt lat="42.827343" lon="0.635498">
        <ele>1727.1</ele>
        <time>2020-05-17T15:08:53Z</time>
      </trkpt>
      <trkpt lat="42.827261" lon="0.635417">
        <ele>1724.4</ele>
        <time>2020-05-17T15:09:02Z</time>
      </trkpt>
      <trkpt lat="42.827173" lon="0.635349">
        <ele>1721.3</ele>
        <time>2020-05-17T15:09:12Z</time>
      </trkpt>
      <trkpt lat="42.827102" lon="0.635246">
        <ele>1719.3</ele>
        <time>2020-05-17T15:09:22Z</time>
      </trkpt>
      <trkpt lat="42.827039" lon="0.635144">
        <ele>1716.5</ele>
        <time>2020-05-17T15:09:32Z</time>
      </trkpt>
      <trkpt lat="42.826977" lon="0.635050">
        <ele>1713.3</ele>
        <time>2020-05-17T15:09:45Z</time>
      </trkpt>
      <trkpt lat="42.826922" lon="0.634930">
        <ele>1710.5</ele>
        <time>2020-05-17T15:09:53Z</time>
      </trkpt>
      <trkpt lat="42.826856" lon="0.634840">
        <ele>1707.8</ele>
        <time>2020-05-17T15:10:01Z</time>
      </trkpt>
      <trkpt lat="42.826804" lon="0.634734">
        <ele>1705.2</ele>
        <time>2020-05-17T15:10:26Z</time>
      </trkpt>
      <trkpt lat="42.826734" lon="0.634639">
        <ele>1702.2</ele>
        <time>2020-05-17T15:10:35Z</time>
      </trkpt>
      <trkpt lat="42.826690" lon="0.634520">
        <ele>1698.5</ele>
        <time>2020-05-17T15:10:44Z</time>
      </trkpt>
      <trkpt lat="42.826661" lon="0.634392">
        <ele>1696.0</ele>
        <time>2020-05-17T15:10:52Z</time>
      </trkpt>
      <trkpt lat="42.826579" lon="0.634337">
        <ele>1695.3</ele>
        <time>2020-05-17T15:11:07Z</time>
      </trkpt>
      <trkpt lat="42.826497" lon="0.634277">
        <ele>1691.2</ele>
        <time>2020-05-17T15:11:15Z</time>
      </trkpt>
      <trkpt lat="42.826409" lon="0.634220">
        <ele>1688.5</ele>
        <time>2020-05-17T15:11:24Z</time>
      </trkpt>
      <trkpt lat="42.826321" lon="0.634153">
        <ele>1687.3</ele>
        <time>2020-05-17T15:11:33Z</time>
      </trkpt>
      <trkpt lat="42.826243" lon="0.634081">
        <ele>1685.4</ele>
        <time>2020-05-17T15:12:12Z</time>
      </trkpt>
      <trkpt lat="42.826158" lon="0.634009">
        <ele>1682.4</ele>
        <time>2020-05-17T15:12:21Z</time>
      </trkpt>
      <trkpt lat="42.826076" lon="0.633941">
        <ele>1680.4</ele>
        <time>2020-05-17T15:12:29Z</time>
      </trkpt>
      <trkpt lat="42.826001" lon="0.633868">
        <ele>1677.6</ele>
        <time>2020-05-17T15:12:39Z</time>
      </trkpt>
      <trkpt lat="42.825938" lon="0.633805">
        <ele>1676.8</ele>
        <time>2020-05-17T15:13:19Z</time>
      </trkpt>
      <trkpt lat="42.825865" lon="0.633723">
        <ele>1675.0</ele>
        <time>2020-05-17T15:13:33Z</time>
      </trkpt>
      <trkpt lat="42.825774" lon="0.633677">
        <ele>1672.7</ele>
        <time>2020-05-17T15:13:43Z</time>
      </trkpt>
      <trkpt lat="42.825692" lon="0.633639">
        <ele>1670.4</ele>
        <time>2020-05-17T15:13:52Z</time>
      </trkpt>
      <trkpt lat="42.825637" lon="0.633591">
        <ele>1668.4</ele>
        <time>2020-05-17T15:15:26Z</time>
      </trkpt>
      <trkpt lat="42.825603" lon="0.633520">
        <ele>1667.2</ele>
        <time>2020-05-17T15:17:53Z</time>
      </trkpt>
      <trkpt lat="42.825534" lon="0.633517">
        <ele>1666.3</ele>
        <time>2020-05-17T15:18:26Z</time>
      </trkpt>
      <trkpt lat="42.825448" lon="0.633536">
        <ele>1665.5</ele>
        <time>2020-05-17T15:18:37Z</time>
      </trkpt>
      <trkpt lat="42.825361" lon="0.633547">
        <ele>1663.9</ele>
        <time>2020-05-17T15:18:50Z</time>
      </trkpt>
      <trkpt lat="42.825283" lon="0.633617">
        <ele>1661.9</ele>
        <time>2020-05-17T15:19:01Z</time>
      </trkpt>
      <trkpt lat="42.825197" lon="0.633653">
        <ele>1660.3</ele>
        <time>2020-05-17T15:19:10Z</time>
      </trkpt>
      <trkpt lat="42.825112" lon="0.633707">
        <ele>1659.5</ele>
        <time>2020-05-17T15:19:19Z</time>
      </trkpt>
      <trkpt lat="42.825050" lon="0.633804">
        <ele>1658.8</ele>
        <time>2020-05-17T15:19:29Z</time>
      </trkpt>
      <trkpt lat="42.824971" lon="0.633874">
        <ele>1657.0</ele>
        <time>2020-05-17T15:19:38Z</time>
      </trkpt>
      <trkpt lat="42.824904" lon="0.633962">
        <ele>1656.2</ele>
        <time>2020-05-17T15:19:47Z</time>
      </trkpt>
      <trkpt lat="42.824838" lon="0.634053">
        <ele>1654.6</ele>
        <time>2020-05-17T15:19:56Z</time>
      </trkpt>
      <trkpt lat="42.824769" lon="0.634146">
        <ele>1653.1</ele>
        <time>2020-05-17T15:20:06Z</time>
      </trkpt>
      <trkpt lat="42.824677" lon="0.634186">
        <ele>1649.3</ele>
        <time>2020-05-17T15:20:20Z</time>
      </trkpt>
      <trkpt lat="42.824581" lon="0.634214">
        <ele>1644.9</ele>
        <time>2020-05-17T15:20:45Z</time>
      </trkpt>
      <trkpt lat="42.824500" lon="0.634220">
        <ele>1640.8</ele>
        <time>2020-05-17T15:22:08Z</time>
      </trkpt>
      <trkpt lat="42.824412" lon="0.634240">
        <ele>1637.8</ele>
        <time>2020-05-17T15:22:22Z</time>
      </trkpt>
      <trkpt lat="42.824317" lon="0.634285">
        <ele>1632.7</ele>
        <time>2020-05-17T15:22:40Z</time>
      </trkpt>
      <trkpt lat="42.824237" lon="0.634332">
        <ele>1626.9</ele>
        <time>2020-05-17T15:22:55Z</time>
      </trkpt>
      <trkpt lat="42.824163" lon="0.634417">
        <ele>1621.7</ele>
        <time>2020-05-17T15:23:13Z</time>
      </trkpt>
      <trkpt lat="42.824096" lon="0.634482">
        <ele>1615.5</ele>
        <time>2020-05-17T15:23:34Z</time>
      </trkpt>
      <trkpt lat="42.824092" lon="0.634601">
        <ele>1610.8</ele>
        <time>2020-05-17T15:23:51Z</time>
      </trkpt>
      <trkpt lat="42.824034" lon="0.634654">
        <ele>1607.6</ele>
        <time>2020-05-17T15:24:03Z</time>
      </trkpt>
      <trkpt lat="42.823941" lon="0.634612">
        <ele>1604.9</ele>
        <time>2020-05-17T15:24:11Z</time>
      </trkpt>
      <trkpt lat="42.823853" lon="0.634538">
        <ele>1604.2</ele>
        <time>2020-05-17T15:24:19Z</time>
      </trkpt>
      <trkpt lat="42.823767" lon="0.634470">
        <ele>1603.4</ele>
        <time>2020-05-17T15:24:26Z</time>
      </trkpt>
      <trkpt lat="42.823682" lon="0.634402">
        <ele>1601.8</ele>
        <time>2020-05-17T15:24:33Z</time>
      </trkpt>
      <trkpt lat="42.823595" lon="0.634335">
        <ele>1601.0</ele>
        <time>2020-05-17T15:24:40Z</time>
      </trkpt>
      <trkpt lat="42.823497" lon="0.634263">
        <ele>1598.6</ele>
        <time>2020-05-17T15:24:48Z</time>
      </trkpt>
      <trkpt lat="42.823409" lon="0.634207">
        <ele>1597.6</ele>
        <time>2020-05-17T15:24:55Z</time>
      </trkpt>
      <trkpt lat="42.823317" lon="0.634132">
        <ele>1595.8</ele>
        <time>2020-05-17T15:25:02Z</time>
      </trkpt>
      <trkpt lat="42.823230" lon="0.634047">
        <ele>1594.1</ele>
        <time>2020-05-17T15:25:10Z</time>
      </trkpt>
      <trkpt lat="42.823132" lon="0.633937">
        <ele>1591.4</ele>
        <time>2020-05-17T15:27:19Z</time>
      </trkpt>
      <trkpt lat="42.823058" lon="0.633852">
        <ele>1590.3</ele>
        <time>2020-05-17T15:27:47Z</time>
      </trkpt>
      <trkpt lat="42.823007" lon="0.633742">
        <ele>1587.6</ele>
        <time>2020-05-17T15:27:56Z</time>
      </trkpt>
      <trkpt lat="42.822960" lon="0.633633">
        <ele>1584.7</ele>
        <time>2020-05-17T15:28:05Z</time>
      </trkpt>
      <trkpt lat="42.822894" lon="0.633552">
        <ele>1582.1</ele>
        <time>2020-05-17T15:28:20Z</time>
      </trkpt>
      <trkpt lat="42.822854" lon="0.633441">
        <ele>1580.5</ele>
        <time>2020-05-17T15:29:43Z</time>
      </trkpt>
      <trkpt lat="42.822818" lon="0.633313">
        <ele>1576.2</ele>
        <time>2020-05-17T15:29:52Z</time>
      </trkpt>
      <trkpt lat="42.822768" lon="0.633206">
        <ele>1575.1</ele>
        <time>2020-05-17T15:30:00Z</time>
      </trkpt>
      <trkpt lat="42.822743" lon="0.633080">
        <ele>1572.6</ele>
        <time>2020-05-17T15:30:08Z</time>
      </trkpt>
      <trkpt lat="42.822727" lon="0.632948">
        <ele>1569.5</ele>
        <time>2020-05-17T15:30:16Z</time>
      </trkpt>
      <trkpt lat="42.822717" lon="0.632819">
        <ele>1567.8</ele>
        <time>2020-05-17T15:30:23Z</time>
      </trkpt>
      <trkpt lat="42.822684" lon="0.632692">
        <ele>1565.2</ele>
        <time>2020-05-17T15:30:30Z</time>
      </trkpt>
      <trkpt lat="42.822654" lon="0.632564">
        <ele>1563.3</ele>
        <time>2020-05-17T15:30:41Z</time>
      </trkpt>
      <trkpt lat="42.822619" lon="0.632450">
        <ele>1559.2</ele>
        <time>2020-05-17T15:30:49Z</time>
      </trkpt>
      <trkpt lat="42.822606" lon="0.632318">
        <ele>1556.7</ele>
        <time>2020-05-17T15:30:57Z</time>
      </trkpt>
      <trkpt lat="42.822572" lon="0.632190">
        <ele>1554.6</ele>
        <time>2020-05-17T15:31:05Z</time>
      </trkpt>
      <trkpt lat="42.822528" lon="0.632085">
        <ele>1553.6</ele>
        <time>2020-05-17T15:31:12Z</time>
      </trkpt>
      <trkpt lat="42.822460" lon="0.631990">
        <ele>1550.6</ele>
        <time>2020-05-17T15:31:19Z</time>
      </trkpt>
      <trkpt lat="42.822381" lon="0.631894">
        <ele>1549.7</ele>
        <time>2020-05-17T15:31:27Z</time>
      </trkpt>
      <trkpt lat="42.822322" lon="0.631798">
        <ele>1546.1</ele>
        <time>2020-05-17T15:31:34Z</time>
      </trkpt>
      <trkpt lat="42.822251" lon="0.631709">
        <ele>1545.1</ele>
        <time>2020-05-17T15:31:41Z</time>
      </trkpt>
      <trkpt lat="42.822178" lon="0.631611">
        <ele>1544.3</ele>
        <time>2020-05-17T15:31:49Z</time>
      </trkpt>
      <trkpt lat="42.822101" lon="0.631507">
        <ele>1540.8</ele>
        <time>2020-05-17T15:31:57Z</time>
      </trkpt>
      <trkpt lat="42.822029" lon="0.631402">
        <ele>1539.6</ele>
        <time>2020-05-17T15:32:05Z</time>
      </trkpt>
      <trkpt lat="42.821952" lon="0.631301">
        <ele>1538.8</ele>
        <time>2020-05-17T15:32:13Z</time>
      </trkpt>
      <trkpt lat="42.821890" lon="0.631196">
        <ele>1537.7</ele>
        <time>2020-05-17T15:32:21Z</time>
      </trkpt>
      <trkpt lat="42.821824" lon="0.631101">
        <ele>1536.4</ele>
        <time>2020-05-17T15:32:29Z</time>
      </trkpt>
      <trkpt lat="42.821751" lon="0.630996">
        <ele>1535.5</ele>
        <time>2020-05-17T15:32:38Z</time>
      </trkpt>
      <trkpt lat="42.821692" lon="0.630899">
        <ele>1532.2</ele>
        <time>2020-05-17T15:32:45Z</time>
      </trkpt>
      <trkpt lat="42.821621" lon="0.630811">
        <ele>1530.6</ele>
        <time>2020-05-17T15:32:52Z</time>
      </trkpt>
      <trkpt lat="42.821549" lon="0.630699">
        <ele>1527.6</ele>
        <time>2020-05-17T15:33:00Z</time>
      </trkpt>
      <trkpt lat="42.821507" lon="0.630572">
        <ele>1525.8</ele>
        <time>2020-05-17T15:33:07Z</time>
      </trkpt>
      <trkpt lat="42.821478" lon="0.630430">
        <ele>1525.1</ele>
        <time>2020-05-17T15:33:15Z</time>
      </trkpt>
      <trkpt lat="42.821451" lon="0.630293">
        <ele>1523.2</ele>
        <time>2020-05-17T15:33:23Z</time>
      </trkpt>
      <trkpt lat="42.821420" lon="0.630153">
        <ele>1522.2</ele>
        <time>2020-05-17T15:33:31Z</time>
      </trkpt>
      <trkpt lat="42.821396" lon="0.630030">
        <ele>1520.5</ele>
        <time>2020-05-17T15:33:39Z</time>
      </trkpt>
      <trkpt lat="42.821384" lon="0.629893">
        <ele>1518.4</ele>
        <time>2020-05-17T15:33:47Z</time>
      </trkpt>
      <trkpt lat="42.821362" lon="0.629757">
        <ele>1517.6</ele>
        <time>2020-05-17T15:33:56Z</time>
      </trkpt>
      <trkpt lat="42.821345" lon="0.629614">
        <ele>1515.8</ele>
        <time>2020-05-17T15:34:05Z</time>
      </trkpt>
      <trkpt lat="42.821331" lon="0.629452">
        <ele>1514.1</ele>
        <time>2020-05-17T15:34:15Z</time>
      </trkpt>
      <trkpt lat="42.821328" lon="0.629292">
        <ele>1510.1</ele>
        <time>2020-05-17T15:34:25Z</time>
      </trkpt>
      <trkpt lat="42.821346" lon="0.629173">
        <ele>1508.0</ele>
        <time>2020-05-17T15:38:21Z</time>
      </trkpt>
      <trkpt lat="42.821330" lon="0.629033">
        <ele>1504.4</ele>
        <time>2020-05-17T15:38:38Z</time>
      </trkpt>
      <trkpt lat="42.821185" lon="0.628879">
        <ele>1501.6</ele>
        <time>2020-05-17T15:38:53Z</time>
      </trkpt>
      <trkpt lat="42.821081" lon="0.628715">
        <ele>1497.9</ele>
        <time>2020-05-17T15:39:07Z</time>
      </trkpt>
      <trkpt lat="42.821007" lon="0.628542">
        <ele>1496.1</ele>
        <time>2020-05-17T15:39:17Z</time>
      </trkpt>
      <trkpt lat="42.820915" lon="0.628498">
        <ele>1495.2</ele>
        <time>2020-05-17T15:39:38Z</time>
      </trkpt>
      <trkpt lat="42.820820" lon="0.628497">
        <ele>1495.1</ele>
        <time>2020-05-17T15:39:51Z</time>
      </trkpt>
      <trkpt lat="42.820725" lon="0.628554">
        <ele>1495.0</ele>
        <time>2020-05-17T15:40:01Z</time>
      </trkpt>
      <trkpt lat="42.820651" lon="0.628651">
        <ele>1494.9</ele>
        <time>2020-05-17T15:40:13Z</time>
      </trkpt>
      <trkpt lat="42.820590" lon="0.628755">
        <ele>1494.8</ele>
        <time>2020-05-17T15:40:23Z</time>
      </trkpt>
      <trkpt lat="42.820505" lon="0.628798">
        <ele>1491.9</ele>
        <time>2020-05-17T15:40:36Z</time>
      </trkpt>
      <trkpt lat="42.820422" lon="0.628745">
        <ele>1488.9</ele>
        <time>2020-05-17T15:40:46Z</time>
      </trkpt>
      <trkpt lat="42.820357" lon="0.628679">
        <ele>1486.1</ele>
        <time>2020-05-17T15:42:34Z</time>
      </trkpt>
      <trkpt lat="42.820271" lon="0.628633">
        <ele>1482.4</ele>
        <time>2020-05-17T15:42:46Z</time>
      </trkpt>
      <trkpt lat="42.820193" lon="0.628558">
        <ele>1476.9</ele>
        <time>2020-05-17T15:43:00Z</time>
      </trkpt>
      <trkpt lat="42.820109" lon="0.628486">
        <ele>1473.6</ele>
        <time>2020-05-17T15:43:14Z</time>
      </trkpt>
      <trkpt lat="42.820024" lon="0.628406">
        <ele>1469.6</ele>
        <time>2020-05-17T15:43:26Z</time>
      </trkpt>
      <trkpt lat="42.819936" lon="0.628349">
        <ele>1464.3</ele>
        <time>2020-05-17T15:43:37Z</time>
      </trkpt>
      <trkpt lat="42.819850" lon="0.628299">
        <ele>1459.5</ele>
        <time>2020-05-17T15:43:50Z</time>
      </trkpt>
      <trkpt lat="42.819770" lon="0.628219">
        <ele>1453.3</ele>
        <time>2020-05-17T15:44:02Z</time>
      </trkpt>
      <trkpt lat="42.819684" lon="0.628165">
        <ele>1449.1</ele>
        <time>2020-05-17T15:44:13Z</time>
      </trkpt>
      <trkpt lat="42.819595" lon="0.628102">
        <ele>1445.5</ele>
        <time>2020-05-17T15:44:25Z</time>
      </trkpt>
      <trkpt lat="42.819507" lon="0.628062">
        <ele>1440.1</ele>
        <time>2020-05-17T15:44:50Z</time>
      </trkpt>
      <trkpt lat="42.819442" lon="0.628011">
        <ele>1435.2</ele>
        <time>2020-05-17T15:45:04Z</time>
      </trkpt>
      <trkpt lat="42.819354" lon="0.627962">
        <ele>1430.0</ele>
        <time>2020-05-17T15:45:19Z</time>
      </trkpt>
      <trkpt lat="42.819275" lon="0.628012">
        <ele>1425.3</ele>
        <time>2020-05-17T15:45:31Z</time>
      </trkpt>
      <trkpt lat="42.819200" lon="0.628039">
        <ele>1420.8</ele>
        <time>2020-05-17T15:45:44Z</time>
      </trkpt>
      <trkpt lat="42.819131" lon="0.628013">
        <ele>1416.3</ele>
        <time>2020-05-17T15:45:58Z</time>
      </trkpt>
      <trkpt lat="42.819064" lon="0.628017">
        <ele>1413.3</ele>
        <time>2020-05-17T15:46:09Z</time>
      </trkpt>
      <trkpt lat="42.818995" lon="0.627967">
        <ele>1408.3</ele>
        <time>2020-05-17T15:46:20Z</time>
      </trkpt>
      <trkpt lat="42.818934" lon="0.627861">
        <ele>1405.3</ele>
        <time>2020-05-17T15:46:29Z</time>
      </trkpt>
      <trkpt lat="42.818851" lon="0.627916">
        <ele>1401.3</ele>
        <time>2020-05-17T15:46:40Z</time>
      </trkpt>
      <trkpt lat="42.818780" lon="0.627858">
        <ele>1397.6</ele>
        <time>2020-05-17T15:46:51Z</time>
      </trkpt>
      <trkpt lat="42.818723" lon="0.627764">
        <ele>1393.7</ele>
        <time>2020-05-17T15:47:02Z</time>
      </trkpt>
      <trkpt lat="42.818655" lon="0.627682">
        <ele>1389.5</ele>
        <time>2020-05-17T15:47:14Z</time>
      </trkpt>
      <trkpt lat="42.818582" lon="0.627638">
        <ele>1385.9</ele>
        <time>2020-05-17T15:47:25Z</time>
      </trkpt>
      <trkpt lat="42.818505" lon="0.627567">
        <ele>1382.0</ele>
        <time>2020-05-17T15:47:34Z</time>
      </trkpt>
      <trkpt lat="42.818412" lon="0.627553">
        <ele>1378.6</ele>
        <time>2020-05-17T15:47:42Z</time>
      </trkpt>
      <trkpt lat="42.818305" lon="0.627528">
        <ele>1374.6</ele>
        <time>2020-05-17T15:47:53Z</time>
      </trkpt>
      <trkpt lat="42.818204" lon="0.627497">
        <ele>1371.4</ele>
        <time>2020-05-17T15:48:03Z</time>
      </trkpt>
      <trkpt lat="42.818106" lon="0.627491">
        <ele>1368.7</ele>
        <time>2020-05-17T15:48:13Z</time>
      </trkpt>
      <trkpt lat="42.818009" lon="0.627489">
        <ele>1364.7</ele>
        <time>2020-05-17T15:48:22Z</time>
      </trkpt>
      <trkpt lat="42.817906" lon="0.627465">
        <ele>1361.7</ele>
        <time>2020-05-17T15:48:31Z</time>
      </trkpt>
      <trkpt lat="42.817801" lon="0.627445">
        <ele>1359.1</ele>
        <time>2020-05-17T15:48:41Z</time>
      </trkpt>
      <trkpt lat="42.817702" lon="0.627439">
        <ele>1356.1</ele>
        <time>2020-05-17T15:48:50Z</time>
      </trkpt>
      <trkpt lat="42.817597" lon="0.627419">
        <ele>1353.1</ele>
        <time>2020-05-17T15:49:00Z</time>
      </trkpt>
      <trkpt lat="42.817494" lon="0.627407">
        <ele>1351.3</ele>
        <time>2020-05-17T15:49:09Z</time>
      </trkpt>
      <trkpt lat="42.817418" lon="0.627310">
        <ele>1349.7</ele>
        <time>2020-05-17T15:49:18Z</time>
      </trkpt>
      <trkpt lat="42.817333" lon="0.627237">
        <ele>1349.7</ele>
        <time>2020-05-17T15:49:27Z</time>
      </trkpt>
      <trkpt lat="42.817259" lon="0.627154">
        <ele>1348.8</ele>
        <time>2020-05-17T15:49:35Z</time>
      </trkpt>
      <trkpt lat="42.817171" lon="0.627088">
        <ele>1347.9</ele>
        <time>2020-05-17T15:49:44Z</time>
      </trkpt>
      <trkpt lat="42.817111" lon="0.626973">
        <ele>1346.2</ele>
        <time>2020-05-17T15:49:55Z</time>
      </trkpt>
      <trkpt lat="42.817058" lon="0.626861">
        <ele>1344.3</ele>
        <time>2020-05-17T15:50:04Z</time>
      </trkpt>
      <trkpt lat="42.816998" lon="0.626754">
        <ele>1341.3</ele>
        <time>2020-05-17T15:50:14Z</time>
      </trkpt>
      <trkpt lat="42.816940" lon="0.626636">
        <ele>1338.7</ele>
        <time>2020-05-17T15:50:24Z</time>
      </trkpt>
      <trkpt lat="42.816857" lon="0.626564">
        <ele>1336.0</ele>
        <time>2020-05-17T15:50:35Z</time>
      </trkpt>
      <trkpt lat="42.816785" lon="0.626476">
        <ele>1333.0</ele>
        <time>2020-05-17T15:50:46Z</time>
      </trkpt>
      <trkpt lat="42.816695" lon="0.626398">
        <ele>1329.1</ele>
        <time>2020-05-17T15:50:57Z</time>
      </trkpt>
      <trkpt lat="42.816593" lon="0.626355">
        <ele>1324.4</ele>
        <time>2020-05-17T15:51:08Z</time>
      </trkpt>
      <trkpt lat="42.816504" lon="0.626284">
        <ele>1321.1</ele>
        <time>2020-05-17T15:51:19Z</time>
      </trkpt>
      <trkpt lat="42.816412" lon="0.626227">
        <ele>1319.2</ele>
        <time>2020-05-17T15:51:29Z</time>
      </trkpt>
      <trkpt lat="42.816341" lon="0.626128">
        <ele>1316.5</ele>
        <time>2020-05-17T15:51:38Z</time>
      </trkpt>
      <trkpt lat="42.816268" lon="0.626038">
        <ele>1314.7</ele>
        <time>2020-05-17T15:51:47Z</time>
      </trkpt>
      <trkpt lat="42.816176" lon="0.625963">
        <ele>1311.2</ele>
        <time>2020-05-17T15:51:57Z</time>
      </trkpt>
      <trkpt lat="42.816082" lon="0.625896">
        <ele>1309.0</ele>
        <time>2020-05-17T15:52:07Z</time>
      </trkpt>
      <trkpt lat="42.815998" lon="0.625800">
        <ele>1307.4</ele>
        <time>2020-05-17T15:52:16Z</time>
      </trkpt>
      <trkpt lat="42.815917" lon="0.625728">
        <ele>1305.8</ele>
        <time>2020-05-17T15:52:27Z</time>
      </trkpt>
      <trkpt lat="42.815829" lon="0.625666">
        <ele>1305.0</ele>
        <time>2020-05-17T15:52:37Z</time>
      </trkpt>
      <trkpt lat="42.815754" lon="0.625586">
        <ele>1301.4</ele>
        <time>2020-05-17T15:52:46Z</time>
      </trkpt>
      <trkpt lat="42.815681" lon="0.625476">
        <ele>1298.5</ele>
        <time>2020-05-17T15:52:56Z</time>
      </trkpt>
      <trkpt lat="42.815598" lon="0.625397">
        <ele>1295.8</ele>
        <time>2020-05-17T15:53:05Z</time>
      </trkpt>
      <trkpt lat="42.815516" lon="0.625304">
        <ele>1293.9</ele>
        <time>2020-05-17T15:53:15Z</time>
      </trkpt>
      <trkpt lat="42.815427" lon="0.625212">
        <ele>1291.1</ele>
        <time>2020-05-17T15:53:24Z</time>
      </trkpt>
      <trkpt lat="42.815344" lon="0.625108">
        <ele>1287.5</ele>
        <time>2020-05-17T15:53:34Z</time>
      </trkpt>
      <trkpt lat="42.815251" lon="0.625057">
        <ele>1286.7</ele>
        <time>2020-05-17T15:53:42Z</time>
      </trkpt>
      <trkpt lat="42.815173" lon="0.624971">
        <ele>1282.7</ele>
        <time>2020-05-17T15:53:50Z</time>
      </trkpt>
      <trkpt lat="42.815107" lon="0.624861">
        <ele>1280.6</ele>
        <time>2020-05-17T15:54:00Z</time>
      </trkpt>
      <trkpt lat="42.815031" lon="0.624750">
        <ele>1276.8</ele>
        <time>2020-05-17T15:54:12Z</time>
      </trkpt>
      <trkpt lat="42.814982" lon="0.624620">
        <ele>1273.2</ele>
        <time>2020-05-17T15:54:25Z</time>
      </trkpt>
      <trkpt lat="42.814957" lon="0.624495">
        <ele>1270.4</ele>
        <time>2020-05-17T15:54:52Z</time>
      </trkpt>
      <trkpt lat="42.814922" lon="0.624384">
        <ele>1267.1</ele>
        <time>2020-05-17T15:55:08Z</time>
      </trkpt>
      <trkpt lat="42.814823" lon="0.624336">
        <ele>1266.3</ele>
        <time>2020-05-17T15:55:23Z</time>
      </trkpt>
      <trkpt lat="42.814728" lon="0.624275">
        <ele>1266.2</ele>
        <time>2020-05-17T15:55:31Z</time>
      </trkpt>
      <trkpt lat="42.814647" lon="0.624160">
        <ele>1263.8</ele>
        <time>2020-05-17T15:55:40Z</time>
      </trkpt>
      <trkpt lat="42.814608" lon="0.624038">
        <ele>1261.2</ele>
        <time>2020-05-17T15:55:50Z</time>
      </trkpt>
      <trkpt lat="42.814550" lon="0.623926">
        <ele>1259.3</ele>
        <time>2020-05-17T15:55:59Z</time>
      </trkpt>
      <trkpt lat="42.814474" lon="0.623838">
        <ele>1256.8</ele>
        <time>2020-05-17T15:56:09Z</time>
      </trkpt>
      <trkpt lat="42.814399" lon="0.623768">
        <ele>1254.7</ele>
        <time>2020-05-17T15:56:19Z</time>
      </trkpt>
      <trkpt lat="42.814331" lon="0.623690">
        <ele>1250.0</ele>
        <time>2020-05-17T16:02:18Z</time>
      </trkpt>
      <trkpt lat="42.814257" lon="0.623614">
        <ele>1247.1</ele>
        <time>2020-05-17T16:03:00Z</time>
      </trkpt>
      <trkpt lat="42.814192" lon="0.623526">
        <ele>1244.6</ele>
        <time>2020-05-17T16:03:10Z</time>
      </trkpt>
      <trkpt lat="42.814134" lon="0.623426">
        <ele>1242.0</ele>
        <time>2020-05-17T16:03:20Z</time>
      </trkpt>
      <trkpt lat="42.814072" lon="0.623337">
        <ele>1237.6</ele>
        <time>2020-05-17T16:03:30Z</time>
      </trkpt>
      <trkpt lat="42.813993" lon="0.623261">
        <ele>1234.7</ele>
        <time>2020-05-17T16:03:40Z</time>
      </trkpt>
      <trkpt lat="42.813938" lon="0.623147">
        <ele>1230.9</ele>
        <time>2020-05-17T16:03:52Z</time>
      </trkpt>
      <trkpt lat="42.813881" lon="0.623042">
        <ele>1226.8</ele>
        <time>2020-05-17T16:04:03Z</time>
      </trkpt>
      <trkpt lat="42.813828" lon="0.622928">
        <ele>1223.1</ele>
        <time>2020-05-17T16:04:13Z</time>
      </trkpt>
      <trkpt lat="42.813770" lon="0.622832">
        <ele>1219.9</ele>
        <time>2020-05-17T16:04:24Z</time>
      </trkpt>
      <trkpt lat="42.813758" lon="0.622706">
        <ele>1214.7</ele>
        <time>2020-05-17T16:04:35Z</time>
      </trkpt>
      <trkpt lat="42.813728" lon="0.622589">
        <ele>1210.9</ele>
        <time>2020-05-17T16:04:50Z</time>
      </trkpt>
      <trkpt lat="42.813671" lon="0.622474">
        <ele>1204.6</ele>
        <time>2020-05-17T16:05:06Z</time>
      </trkpt>
      <trkpt lat="42.813621" lon="0.622377">
        <ele>1201.8</ele>
        <time>2020-05-17T16:05:19Z</time>
      </trkpt>
      <trkpt lat="42.813585" lon="0.622251">
        <ele>1198.1</ele>
        <time>2020-05-17T16:05:31Z</time>
      </trkpt>
      <trkpt lat="42.813550" lon="0.622137">
        <ele>1193.9</ele>
        <time>2020-05-17T16:05:40Z</time>
      </trkpt>
      <trkpt lat="42.813509" lon="0.622033">
        <ele>1190.1</ele>
        <time>2020-05-17T16:05:50Z</time>
      </trkpt>
      <trkpt lat="42.813477" lon="0.621919">
        <ele>1186.5</ele>
        <time>2020-05-17T16:06:00Z</time>
      </trkpt>
      <trkpt lat="42.813448" lon="0.621807">
        <ele>1184.1</ele>
        <time>2020-05-17T16:06:10Z</time>
      </trkpt>
      <trkpt lat="42.813421" lon="0.621690">
        <ele>1179.5</ele>
        <time>2020-05-17T16:06:23Z</time>
      </trkpt>
      <trkpt lat="42.813414" lon="0.621559">
        <ele>1176.6</ele>
        <time>2020-05-17T16:06:37Z</time>
      </trkpt>
      <trkpt lat="42.813427" lon="0.621421">
        <ele>1170.0</ele>
        <time>2020-05-17T16:07:05Z</time>
      </trkpt>
      <trkpt lat="42.813473" lon="0.621315">
        <ele>1166.8</ele>
        <time>2020-05-17T16:07:21Z</time>
      </trkpt>
      <trkpt lat="42.813459" lon="0.621184">
        <ele>1161.8</ele>
        <time>2020-05-17T16:07:35Z</time>
      </trkpt>
      <trkpt lat="42.813397" lon="0.621071">
        <ele>1156.9</ele>
        <time>2020-05-17T16:07:49Z</time>
      </trkpt>
      <trkpt lat="42.813307" lon="0.621005">
        <ele>1154.1</ele>
        <time>2020-05-17T16:08:07Z</time>
      </trkpt>
      <trkpt lat="42.813258" lon="0.620907">
        <ele>1152.1</ele>
        <time>2020-05-17T16:08:23Z</time>
      </trkpt>
      <trkpt lat="42.813207" lon="0.620795">
        <ele>1148.4</ele>
        <time>2020-05-17T16:08:35Z</time>
      </trkpt>
      <trkpt lat="42.813168" lon="0.620685">
        <ele>1145.0</ele>
        <time>2020-05-17T16:08:52Z</time>
      </trkpt>
      <trkpt lat="42.813115" lon="0.620569">
        <ele>1140.9</ele>
        <time>2020-05-17T16:10:28Z</time>
      </trkpt>
      <trkpt lat="42.813046" lon="0.620477">
        <ele>1136.5</ele>
        <time>2020-05-17T16:10:55Z</time>
      </trkpt>
      <trkpt lat="42.812986" lon="0.620374">
        <ele>1133.6</ele>
        <time>2020-05-17T16:11:09Z</time>
      </trkpt>
      <trkpt lat="42.812950" lon="0.620258">
        <ele>1131.7</ele>
        <time>2020-05-17T16:11:20Z</time>
      </trkpt>
      <trkpt lat="42.812894" lon="0.620164">
        <ele>1126.8</ele>
        <time>2020-05-17T16:11:31Z</time>
      </trkpt>
      <trkpt lat="42.812871" lon="0.620081">
        <ele>1117.9</ele>
        <time>2020-05-17T16:11:48Z</time>
      </trkpt>
      <trkpt lat="42.812877" lon="0.619953">
        <ele>1114.4</ele>
        <time>2020-05-17T16:11:58Z</time>
      </trkpt>
      <trkpt lat="42.812856" lon="0.619869">
        <ele>1111.6</ele>
        <time>2020-05-17T16:12:08Z</time>
      </trkpt>
      <trkpt lat="42.812805" lon="0.619801">
        <ele>1106.4</ele>
        <time>2020-05-17T16:12:16Z</time>
      </trkpt>
      <trkpt lat="42.812804" lon="0.619691">
        <ele>1102.5</ele>
        <time>2020-05-17T16:12:25Z</time>
      </trkpt>
      <trkpt lat="42.812754" lon="0.619587">
        <ele>1097.4</ele>
        <time>2020-05-17T16:12:37Z</time>
      </trkpt>
      <trkpt lat="42.812684" lon="0.619531">
        <ele>1092.6</ele>
        <time>2020-05-17T16:12:49Z</time>
      </trkpt>
      <trkpt lat="42.812651" lon="0.619416">
        <ele>1088.7</ele>
        <time>2020-05-17T16:12:59Z</time>
      </trkpt>
      <trkpt lat="42.812603" lon="0.619318">
        <ele>1082.3</ele>
        <time>2020-05-17T16:13:10Z</time>
      </trkpt>
      <trkpt lat="42.812590" lon="0.619200">
        <ele>1078.5</ele>
        <time>2020-05-17T16:13:20Z</time>
      </trkpt>
      <trkpt lat="42.812546" lon="0.619121">
        <ele>1074.4</ele>
        <time>2020-05-17T16:13:29Z</time>
      </trkpt>
      <trkpt lat="42.812524" lon="0.619014">
        <ele>1071.2</ele>
        <time>2020-05-17T16:13:37Z</time>
      </trkpt>
      <trkpt lat="42.812501" lon="0.618895">
        <ele>1065.3</ele>
        <time>2020-05-17T16:13:46Z</time>
      </trkpt>
      <trkpt lat="42.812469" lon="0.618777">
        <ele>1061.7</ele>
        <time>2020-05-17T16:13:56Z</time>
      </trkpt>
      <trkpt lat="42.812424" lon="0.618668">
        <ele>1056.4</ele>
        <time>2020-05-17T16:14:06Z</time>
      </trkpt>
      <trkpt lat="42.812377" lon="0.618566">
        <ele>1052.4</ele>
        <time>2020-05-17T16:14:21Z</time>
      </trkpt>
      <trkpt lat="42.812354" lon="0.618450">
        <ele>1046.6</ele>
        <time>2020-05-17T16:14:32Z</time>
      </trkpt>
      <trkpt lat="42.812348" lon="0.618397">
        <ele>1044.5</ele>
        <time>2020-05-17T16:15:04Z</time>
      </trkpt>
      <trkpt lat="42.812276" lon="0.618341">
        <ele>1040.5</ele>
        <time>2020-05-17T16:15:15Z</time>
      </trkpt>
      <trkpt lat="42.812264" lon="0.618219">
        <ele>1035.8</ele>
        <time>2020-05-17T16:15:25Z</time>
      </trkpt>
      <trkpt lat="42.812211" lon="0.618117">
        <ele>1031.0</ele>
        <time>2020-05-17T16:15:36Z</time>
      </trkpt>
      <trkpt lat="42.812178" lon="0.617999">
        <ele>1026.9</ele>
        <time>2020-05-17T16:15:45Z</time>
      </trkpt>
      <trkpt lat="42.812132" lon="0.617896">
        <ele>1021.3</ele>
        <time>2020-05-17T16:15:54Z</time>
      </trkpt>
      <trkpt lat="42.812120" lon="0.617787">
        <ele>1018.0</ele>
        <time>2020-05-17T16:16:02Z</time>
      </trkpt>
      <trkpt lat="42.812074" lon="0.617707">
        <ele>1012.7</ele>
        <time>2020-05-17T16:16:12Z</time>
      </trkpt>
      <trkpt lat="42.812044" lon="0.617583">
        <ele>1009.5</ele>
        <time>2020-05-17T16:16:20Z</time>
      </trkpt>
      <trkpt lat="42.811976" lon="0.617487">
        <ele>1006.3</ele>
        <time>2020-05-17T16:16:29Z</time>
      </trkpt>
      <trkpt lat="42.811979" lon="0.617376">
        <ele>999.2</ele>
        <time>2020-05-17T16:16:38Z</time>
      </trkpt>
      <trkpt lat="42.811935" lon="0.617275">
        <ele>994.7</ele>
        <time>2020-05-17T16:16:51Z</time>
      </trkpt>
      <trkpt lat="42.811928" lon="0.617149">
        <ele>988.1</ele>
        <time>2020-05-17T16:17:04Z</time>
      </trkpt>
      <trkpt lat="42.811942" lon="0.617022">
        <ele>983.2</ele>
        <time>2020-05-17T16:17:14Z</time>
      </trkpt>
      <trkpt lat="42.811910" lon="0.616922">
        <ele>978.5</ele>
        <time>2020-05-17T16:17:25Z</time>
      </trkpt>
      <trkpt lat="42.811849" lon="0.616831">
        <ele>973.2</ele>
        <time>2020-05-17T16:17:41Z</time>
      </trkpt>
      <trkpt lat="42.811754" lon="0.616767">
        <ele>968.9</ele>
        <time>2020-05-17T16:17:49Z</time>
      </trkpt>
      <trkpt lat="42.811654" lon="0.616744">
        <ele>965.9</ele>
        <time>2020-05-17T16:17:57Z</time>
      </trkpt>
      <trkpt lat="42.811543" lon="0.616743">
        <ele>964.0</ele>
        <time>2020-05-17T16:18:07Z</time>
      </trkpt>
      <trkpt lat="42.811505" lon="0.616666">
        <ele>961.2</ele>
        <time>2020-05-17T16:18:23Z</time>
      </trkpt>
      <trkpt lat="42.811503" lon="0.616525">
        <ele>957.9</ele>
        <time>2020-05-17T16:18:32Z</time>
      </trkpt>
      <trkpt lat="42.811442" lon="0.616430">
        <ele>957.2</ele>
        <time>2020-05-17T16:18:39Z</time>
      </trkpt>
      <trkpt lat="42.811383" lon="0.616344">
        <ele>956.4</ele>
        <time>2020-05-17T16:18:52Z</time>
      </trkpt>
      <trkpt lat="42.811380" lon="0.616344">
        <ele>954.1</ele>
        <time>2020-05-17T16:19:03Z</time>
      </trkpt>
    </trkseg>
  </trk>
</gpx>

